<?xml version="1.0" encoding="UTF-8" standalone="no" ?>
<gpx xmlns="http://www.topografix.com/GPX/1/1" xmlns:xsi="http://www.w3.org/2001/XMLSchema-instance" xsi:schemaLocation="http://www.topografix.com/GPX/1/1 http://www.topografix.com/GPX/1/1/gpx.xsd" version="1.1" creator="VisuGPX - https://www.visugpx.com">
  <metadata>
    <name>20180616 Le Bayard-Champdieu-Etang de la Serre-Le Bayard</name>
    <desc><![CDATA[Circuit VTT au départ du Port de Quirieu]]></desc>
  </metadata>
  <trk>
    <name><![CDATA[ACTIVE LOG144932]]></name>
    <trkseg>
      <trkpt lat="45.78721" lon="5.44341">
        <ele>216.859</ele>
        <time>2018-06-16T12:49:30Z</time>
      </trkpt>
      <trkpt lat="45.78717" lon="5.44341">
        <ele>216.631</ele>
        <time>2018-06-16T12:49:51Z</time>
      </trkpt>
      <trkpt lat="45.78713" lon="5.44344">
        <ele>216.698</ele>
        <time>2018-06-16T12:50:02Z</time>
      </trkpt>
      <trkpt lat="45.78708" lon="5.44343">
        <ele>216.583</ele>
        <time>2018-06-16T12:50:06Z</time>
      </trkpt>
      <trkpt lat="45.78702" lon="5.44351">
        <ele>216.618</ele>
        <time>2018-06-16T12:50:10Z</time>
      </trkpt>
      <trkpt lat="45.78696" lon="5.44358">
        <ele>216.169</ele>
        <time>2018-06-16T12:50:14Z</time>
      </trkpt>
      <trkpt lat="45.78691" lon="5.44366">
        <ele>216.082</ele>
        <time>2018-06-16T12:50:16Z</time>
      </trkpt>
      <trkpt lat="45.7869" lon="5.44404">
        <ele>212.095</ele>
        <time>2018-06-16T12:50:21Z</time>
      </trkpt>
      <trkpt lat="45.78691" lon="5.44424">
        <ele>210.502</ele>
        <time>2018-06-16T12:50:23Z</time>
      </trkpt>
      <trkpt lat="45.78688" lon="5.44453">
        <ele>207.448</ele>
        <time>2018-06-16T12:50:26Z</time>
      </trkpt>
      <trkpt lat="45.78681" lon="5.44473">
        <ele>206.217</ele>
        <time>2018-06-16T12:50:28Z</time>
      </trkpt>
      <trkpt lat="45.78676" lon="5.44483">
        <ele>204.254</ele>
        <time>2018-06-16T12:50:29Z</time>
      </trkpt>
      <trkpt lat="45.78657" lon="5.44516">
        <ele>202.9</ele>
        <time>2018-06-16T12:50:33Z</time>
      </trkpt>
      <trkpt lat="45.78649" lon="5.44531">
        <ele>201.315</ele>
        <time>2018-06-16T12:50:35Z</time>
      </trkpt>
      <trkpt lat="45.7863" lon="5.44556">
        <ele>201.99</ele>
        <time>2018-06-16T12:50:39Z</time>
      </trkpt>
      <trkpt lat="45.78604" lon="5.44571">
        <ele>202.23</ele>
        <time>2018-06-16T12:50:44Z</time>
      </trkpt>
      <trkpt lat="45.78582" lon="5.4459">
        <ele>205.499</ele>
        <time>2018-06-16T12:50:51Z</time>
      </trkpt>
      <trkpt lat="45.78572" lon="5.44604">
        <ele>206.338</ele>
        <time>2018-06-16T12:50:56Z</time>
      </trkpt>
      <trkpt lat="45.78554" lon="5.44631">
        <ele>208.307</ele>
        <time>2018-06-16T12:51:06Z</time>
      </trkpt>
      <trkpt lat="45.78538" lon="5.44654">
        <ele>210.279</ele>
        <time>2018-06-16T12:51:15Z</time>
      </trkpt>
      <trkpt lat="45.78523" lon="5.44676">
        <ele>212.069</ele>
        <time>2018-06-16T12:51:23Z</time>
      </trkpt>
      <trkpt lat="45.78501" lon="5.44707">
        <ele>213.953</ele>
        <time>2018-06-16T12:51:36Z</time>
      </trkpt>
      <trkpt lat="45.78472" lon="5.44727">
        <ele>216.276</ele>
        <time>2018-06-16T12:51:47Z</time>
      </trkpt>
      <trkpt lat="45.78458" lon="5.44735">
        <ele>216.029</ele>
        <time>2018-06-16T12:51:54Z</time>
      </trkpt>
      <trkpt lat="45.78443" lon="5.44746">
        <ele>216.365</ele>
        <time>2018-06-16T12:52:01Z</time>
      </trkpt>
      <trkpt lat="45.78429" lon="5.44756">
        <ele>216.659</ele>
        <time>2018-06-16T12:52:11Z</time>
      </trkpt>
      <trkpt lat="45.78426" lon="5.44758">
        <ele>216.371</ele>
        <time>2018-06-16T12:52:34Z</time>
      </trkpt>
      <trkpt lat="45.78411" lon="5.44769">
        <ele>215.865</ele>
        <time>2018-06-16T12:54:36Z</time>
      </trkpt>
      <trkpt lat="45.78398" lon="5.44774">
        <ele>212.045</ele>
        <time>2018-06-16T12:54:59Z</time>
      </trkpt>
      <trkpt lat="45.78384" lon="5.44782">
        <ele>210.929</ele>
        <time>2018-06-16T12:55:02Z</time>
      </trkpt>
      <trkpt lat="45.78368" lon="5.44787">
        <ele>208.518</ele>
        <time>2018-06-16T12:55:08Z</time>
      </trkpt>
      <trkpt lat="45.78358" lon="5.44888">
        <ele>206.953</ele>
        <time>2018-06-16T12:55:12Z</time>
      </trkpt>
      <trkpt lat="45.78336" lon="5.4494">
        <ele>205.945</ele>
        <time>2018-06-16T12:55:20Z</time>
      </trkpt>
      <trkpt lat="45.78331" lon="5.44952">
        <ele>205.411</ele>
        <time>2018-06-16T12:55:22Z</time>
      </trkpt>
      <trkpt lat="45.78312" lon="5.44996">
        <ele>205.421</ele>
        <time>2018-06-16T12:55:30Z</time>
      </trkpt>
      <trkpt lat="45.78304" lon="5.45014">
        <ele>205.834</ele>
        <time>2018-06-16T12:55:34Z</time>
      </trkpt>
      <trkpt lat="45.78307" lon="5.45025">
        <ele>205.412</ele>
        <time>2018-06-16T12:55:37Z</time>
      </trkpt>
      <trkpt lat="45.78305" lon="5.45044">
        <ele>205.035</ele>
        <time>2018-06-16T12:55:41Z</time>
      </trkpt>
      <trkpt lat="45.78279" lon="5.451">
        <ele>205.07</ele>
        <time>2018-06-16T12:55:45Z</time>
      </trkpt>
      <trkpt lat="45.78277" lon="5.45099">
        <ele>205.007</ele>
        <time>2018-06-16T12:55:46Z</time>
      </trkpt>
      <trkpt lat="45.78273" lon="5.45095">
        <ele>206.918</ele>
        <time>2018-06-16T12:55:49Z</time>
      </trkpt>
      <trkpt lat="45.78266" lon="5.45092">
        <ele>208.957</ele>
        <time>2018-06-16T12:56:03Z</time>
      </trkpt>
      <trkpt lat="45.78263" lon="5.45089">
        <ele>208.956</ele>
        <time>2018-06-16T12:56:04Z</time>
      </trkpt>
      <trkpt lat="45.78239" lon="5.45073">
        <ele>208.873</ele>
        <time>2018-06-16T12:56:12Z</time>
      </trkpt>
      <trkpt lat="45.78211" lon="5.4505">
        <ele>209.797</ele>
        <time>2018-06-16T12:56:20Z</time>
      </trkpt>
      <trkpt lat="45.78196" lon="5.45039">
        <ele>210.405</ele>
        <time>2018-06-16T12:56:26Z</time>
      </trkpt>
      <trkpt lat="45.78191" lon="5.45035">
        <ele>210.141</ele>
        <time>2018-06-16T12:56:29Z</time>
      </trkpt>
      <trkpt lat="45.78185" lon="5.4503">
        <ele>210.365</ele>
        <time>2018-06-16T12:56:32Z</time>
      </trkpt>
      <trkpt lat="45.7818" lon="5.45025">
        <ele>210.722</ele>
        <time>2018-06-16T12:58:15Z</time>
      </trkpt>
      <trkpt lat="45.78166" lon="5.45048">
        <ele>210.594</ele>
        <time>2018-06-16T12:58:26Z</time>
      </trkpt>
      <trkpt lat="45.7816" lon="5.45065">
        <ele>208.573</ele>
        <time>2018-06-16T12:58:33Z</time>
      </trkpt>
      <trkpt lat="45.78159" lon="5.45067">
        <ele>208.571</ele>
        <time>2018-06-16T12:58:34Z</time>
      </trkpt>
      <trkpt lat="45.78138" lon="5.45082">
        <ele>208.09</ele>
        <time>2018-06-16T12:58:44Z</time>
      </trkpt>
      <trkpt lat="45.78116" lon="5.4509">
        <ele>207.599</ele>
        <time>2018-06-16T12:58:53Z</time>
      </trkpt>
      <trkpt lat="45.7809" lon="5.451">
        <ele>207.738</ele>
        <time>2018-06-16T12:59:03Z</time>
      </trkpt>
      <trkpt lat="45.78067" lon="5.45104">
        <ele>207.932</ele>
        <time>2018-06-16T12:59:12Z</time>
      </trkpt>
      <trkpt lat="45.78037" lon="5.45104">
        <ele>207.555</ele>
        <time>2018-06-16T12:59:22Z</time>
      </trkpt>
      <trkpt lat="45.78013" lon="5.45107">
        <ele>208.041</ele>
        <time>2018-06-16T12:59:31Z</time>
      </trkpt>
      <trkpt lat="45.77995" lon="5.4512">
        <ele>207.852</ele>
        <time>2018-06-16T12:59:38Z</time>
      </trkpt>
      <trkpt lat="45.77994" lon="5.4515">
        <ele>207.925</ele>
        <time>2018-06-16T12:59:44Z</time>
      </trkpt>
      <trkpt lat="45.77997" lon="5.45196">
        <ele>207.887</ele>
        <time>2018-06-16T12:59:55Z</time>
      </trkpt>
      <trkpt lat="45.77986" lon="5.45212">
        <ele>208.37</ele>
        <time>2018-06-16T13:00:01Z</time>
      </trkpt>
      <trkpt lat="45.77957" lon="5.45229">
        <ele>208.972</ele>
        <time>2018-06-16T13:00:11Z</time>
      </trkpt>
      <trkpt lat="45.77923" lon="5.45247">
        <ele>208.47</ele>
        <time>2018-06-16T13:00:21Z</time>
      </trkpt>
      <trkpt lat="45.77887" lon="5.45269">
        <ele>208.732</ele>
        <time>2018-06-16T13:00:32Z</time>
      </trkpt>
      <trkpt lat="45.77847" lon="5.45292">
        <ele>208.425</ele>
        <time>2018-06-16T13:00:44Z</time>
      </trkpt>
      <trkpt lat="45.77813" lon="5.4531">
        <ele>208.98</ele>
        <time>2018-06-16T13:00:55Z</time>
      </trkpt>
      <trkpt lat="45.77793" lon="5.45319">
        <ele>209.919</ele>
        <time>2018-06-16T13:01:04Z</time>
      </trkpt>
      <trkpt lat="45.77771" lon="5.45331">
        <ele>210.051</ele>
        <time>2018-06-16T13:01:15Z</time>
      </trkpt>
      <trkpt lat="45.77746" lon="5.4534">
        <ele>210.285</ele>
        <time>2018-06-16T13:01:25Z</time>
      </trkpt>
      <trkpt lat="45.77717" lon="5.45345">
        <ele>210.556</ele>
        <time>2018-06-16T13:01:36Z</time>
      </trkpt>
      <trkpt lat="45.77695" lon="5.45341">
        <ele>210.402</ele>
        <time>2018-06-16T13:01:44Z</time>
      </trkpt>
      <trkpt lat="45.77683" lon="5.45334">
        <ele>210.056</ele>
        <time>2018-06-16T13:01:49Z</time>
      </trkpt>
      <trkpt lat="45.77671" lon="5.45319">
        <ele>210.429</ele>
        <time>2018-06-16T13:01:56Z</time>
      </trkpt>
      <trkpt lat="45.77667" lon="5.45304">
        <ele>210.17</ele>
        <time>2018-06-16T13:02:02Z</time>
      </trkpt>
      <trkpt lat="45.77661" lon="5.45286">
        <ele>210.462</ele>
        <time>2018-06-16T13:03:58Z</time>
      </trkpt>
      <trkpt lat="45.7766" lon="5.45277">
        <ele>210.835</ele>
        <time>2018-06-16T13:04:03Z</time>
      </trkpt>
      <trkpt lat="45.7765" lon="5.45253">
        <ele>211.034</ele>
        <time>2018-06-16T13:05:45Z</time>
      </trkpt>
      <trkpt lat="45.77614" lon="5.45296">
        <ele>208.758</ele>
        <time>2018-06-16T13:05:52Z</time>
      </trkpt>
      <trkpt lat="45.77598" lon="5.45314">
        <ele>207.969</ele>
        <time>2018-06-16T13:05:55Z</time>
      </trkpt>
      <trkpt lat="45.77579" lon="5.45344">
        <ele>210.32</ele>
        <time>2018-06-16T13:06:01Z</time>
      </trkpt>
      <trkpt lat="45.77569" lon="5.45332">
        <ele>211.899</ele>
        <time>2018-06-16T13:06:07Z</time>
      </trkpt>
      <trkpt lat="45.77561" lon="5.45311">
        <ele>211.646</ele>
        <time>2018-06-16T13:06:11Z</time>
      </trkpt>
      <trkpt lat="45.77545" lon="5.45303">
        <ele>213.17</ele>
        <time>2018-06-16T13:06:16Z</time>
      </trkpt>
      <trkpt lat="45.77512" lon="5.45282">
        <ele>216.51</ele>
        <time>2018-06-16T13:06:26Z</time>
      </trkpt>
      <trkpt lat="45.77485" lon="5.45275">
        <ele>217.507</ele>
        <time>2018-06-16T13:06:34Z</time>
      </trkpt>
      <trkpt lat="45.77471" lon="5.45267">
        <ele>217.823</ele>
        <time>2018-06-16T13:06:38Z</time>
      </trkpt>
      <trkpt lat="45.77455" lon="5.45257">
        <ele>218.277</ele>
        <time>2018-06-16T13:06:42Z</time>
      </trkpt>
      <trkpt lat="45.77404" lon="5.45221">
        <ele>216.805</ele>
        <time>2018-06-16T13:06:53Z</time>
      </trkpt>
      <trkpt lat="45.77373" lon="5.452">
        <ele>216.471</ele>
        <time>2018-06-16T13:07:06Z</time>
      </trkpt>
      <trkpt lat="45.77371" lon="5.45185">
        <ele>217.159</ele>
        <time>2018-06-16T13:07:14Z</time>
      </trkpt>
      <trkpt lat="45.77368" lon="5.45187">
        <ele>217.133</ele>
        <time>2018-06-16T13:07:57Z</time>
      </trkpt>
      <trkpt lat="45.7736" lon="5.45192">
        <ele>217.043</ele>
        <time>2018-06-16T13:08:01Z</time>
      </trkpt>
      <trkpt lat="45.77336" lon="5.45209">
        <ele>216.683</ele>
        <time>2018-06-16T13:08:12Z</time>
      </trkpt>
      <trkpt lat="45.77326" lon="5.45201">
        <ele>216.569</ele>
        <time>2018-06-16T13:08:17Z</time>
      </trkpt>
      <trkpt lat="45.77323" lon="5.45187">
        <ele>216.305</ele>
        <time>2018-06-16T13:08:20Z</time>
      </trkpt>
      <trkpt lat="45.77317" lon="5.45154">
        <ele>217.046</ele>
        <time>2018-06-16T13:08:29Z</time>
      </trkpt>
      <trkpt lat="45.77314" lon="5.45133">
        <ele>217.506</ele>
        <time>2018-06-16T13:08:35Z</time>
      </trkpt>
      <trkpt lat="45.77309" lon="5.45096">
        <ele>218.151</ele>
        <time>2018-06-16T13:08:45Z</time>
      </trkpt>
      <trkpt lat="45.77303" lon="5.4505">
        <ele>218.26</ele>
        <time>2018-06-16T13:08:56Z</time>
      </trkpt>
      <trkpt lat="45.77295" lon="5.45009">
        <ele>219.119</ele>
        <time>2018-06-16T13:09:07Z</time>
      </trkpt>
      <trkpt lat="45.7729" lon="5.44972">
        <ele>219.601</ele>
        <time>2018-06-16T13:09:19Z</time>
      </trkpt>
      <trkpt lat="45.77284" lon="5.44927">
        <ele>220.926</ele>
        <time>2018-06-16T13:09:31Z</time>
      </trkpt>
      <trkpt lat="45.77278" lon="5.44884">
        <ele>221.345</ele>
        <time>2018-06-16T13:09:43Z</time>
      </trkpt>
      <trkpt lat="45.77276" lon="5.44868">
        <ele>222.136</ele>
        <time>2018-06-16T13:10:16Z</time>
      </trkpt>
      <trkpt lat="45.77275" lon="5.44843">
        <ele>222.444</ele>
        <time>2018-06-16T13:10:24Z</time>
      </trkpt>
      <trkpt lat="45.77271" lon="5.44825">
        <ele>222.29</ele>
        <time>2018-06-16T13:10:28Z</time>
      </trkpt>
      <trkpt lat="45.77251" lon="5.448">
        <ele>221.082</ele>
        <time>2018-06-16T13:10:34Z</time>
      </trkpt>
      <trkpt lat="45.77228" lon="5.44791">
        <ele>220.622</ele>
        <time>2018-06-16T13:10:39Z</time>
      </trkpt>
      <trkpt lat="45.77215" lon="5.44777">
        <ele>220.847</ele>
        <time>2018-06-16T13:10:43Z</time>
      </trkpt>
      <trkpt lat="45.77199" lon="5.44742">
        <ele>221.031</ele>
        <time>2018-06-16T13:10:51Z</time>
      </trkpt>
      <trkpt lat="45.77191" lon="5.44724">
        <ele>220.731</ele>
        <time>2018-06-16T13:10:56Z</time>
      </trkpt>
      <trkpt lat="45.77174" lon="5.44682">
        <ele>220.808</ele>
        <time>2018-06-16T13:11:05Z</time>
      </trkpt>
      <trkpt lat="45.77153" lon="5.44631">
        <ele>220.704</ele>
        <time>2018-06-16T13:11:17Z</time>
      </trkpt>
      <trkpt lat="45.77137" lon="5.44594">
        <ele>220.576</ele>
        <time>2018-06-16T13:11:27Z</time>
      </trkpt>
      <trkpt lat="45.77131" lon="5.44579">
        <ele>220.958</ele>
        <time>2018-06-16T13:11:31Z</time>
      </trkpt>
      <trkpt lat="45.77117" lon="5.44583">
        <ele>221.309</ele>
        <time>2018-06-16T13:11:36Z</time>
      </trkpt>
      <trkpt lat="45.77101" lon="5.44621">
        <ele>221.459</ele>
        <time>2018-06-16T13:11:46Z</time>
      </trkpt>
      <trkpt lat="45.77096" lon="5.44633">
        <ele>221.507</ele>
        <time>2018-06-16T13:11:49Z</time>
      </trkpt>
      <trkpt lat="45.77084" lon="5.44666">
        <ele>221.318</ele>
        <time>2018-06-16T13:11:57Z</time>
      </trkpt>
      <trkpt lat="45.77062" lon="5.44736">
        <ele>221.181</ele>
        <time>2018-06-16T13:12:12Z</time>
      </trkpt>
      <trkpt lat="45.77041" lon="5.44797">
        <ele>221.423</ele>
        <time>2018-06-16T13:12:24Z</time>
      </trkpt>
      <trkpt lat="45.77016" lon="5.44854">
        <ele>220.96</ele>
        <time>2018-06-16T13:12:35Z</time>
      </trkpt>
      <trkpt lat="45.76986" lon="5.44901">
        <ele>221.14</ele>
        <time>2018-06-16T13:12:45Z</time>
      </trkpt>
      <trkpt lat="45.76977" lon="5.44913">
        <ele>221.272</ele>
        <time>2018-06-16T13:12:48Z</time>
      </trkpt>
      <trkpt lat="45.76942" lon="5.44959">
        <ele>221.042</ele>
        <time>2018-06-16T13:12:59Z</time>
      </trkpt>
      <trkpt lat="45.76911" lon="5.44989">
        <ele>221.265</ele>
        <time>2018-06-16T13:13:09Z</time>
      </trkpt>
      <trkpt lat="45.76904" lon="5.44996">
        <ele>221.659</ele>
        <time>2018-06-16T13:13:11Z</time>
      </trkpt>
      <trkpt lat="45.76869" lon="5.45025">
        <ele>221.534</ele>
        <time>2018-06-16T13:13:22Z</time>
      </trkpt>
      <trkpt lat="45.76854" lon="5.45036">
        <ele>221.547</ele>
        <time>2018-06-16T13:13:29Z</time>
      </trkpt>
      <trkpt lat="45.76849" lon="5.45039">
        <ele>221.977</ele>
        <time>2018-06-16T13:13:38Z</time>
      </trkpt>
      <trkpt lat="45.76841" lon="5.45044">
        <ele>222.14</ele>
        <time>2018-06-16T13:14:01Z</time>
      </trkpt>
      <trkpt lat="45.76836" lon="5.45047">
        <ele>221.912</ele>
        <time>2018-06-16T13:14:08Z</time>
      </trkpt>
      <trkpt lat="45.7683" lon="5.45052">
        <ele>221.512</ele>
        <time>2018-06-16T13:15:22Z</time>
      </trkpt>
      <trkpt lat="45.76813" lon="5.45063">
        <ele>221.254</ele>
        <time>2018-06-16T13:15:31Z</time>
      </trkpt>
      <trkpt lat="45.76787" lon="5.4508">
        <ele>221.852</ele>
        <time>2018-06-16T13:15:38Z</time>
      </trkpt>
      <trkpt lat="45.76775" lon="5.45089">
        <ele>221.668</ele>
        <time>2018-06-16T13:15:41Z</time>
      </trkpt>
      <trkpt lat="45.76735" lon="5.45115">
        <ele>221.759</ele>
        <time>2018-06-16T13:15:51Z</time>
      </trkpt>
      <trkpt lat="45.76702" lon="5.45141">
        <ele>222.123</ele>
        <time>2018-06-16T13:16:01Z</time>
      </trkpt>
      <trkpt lat="45.76664" lon="5.45175">
        <ele>222.024</ele>
        <time>2018-06-16T13:16:13Z</time>
      </trkpt>
      <trkpt lat="45.76632" lon="5.45204">
        <ele>222.34</ele>
        <time>2018-06-16T13:16:24Z</time>
      </trkpt>
      <trkpt lat="45.76596" lon="5.45236">
        <ele>221.879</ele>
        <time>2018-06-16T13:16:35Z</time>
      </trkpt>
      <trkpt lat="45.76561" lon="5.45266">
        <ele>221.425</ele>
        <time>2018-06-16T13:16:47Z</time>
      </trkpt>
      <trkpt lat="45.76531" lon="5.45295">
        <ele>221.935</ele>
        <time>2018-06-16T13:16:58Z</time>
      </trkpt>
      <trkpt lat="45.76505" lon="5.45288">
        <ele>222.197</ele>
        <time>2018-06-16T13:17:06Z</time>
      </trkpt>
      <trkpt lat="45.76477" lon="5.45288">
        <ele>223.002</ele>
        <time>2018-06-16T13:17:15Z</time>
      </trkpt>
      <trkpt lat="45.76451" lon="5.45292">
        <ele>223.045</ele>
        <time>2018-06-16T13:17:22Z</time>
      </trkpt>
      <trkpt lat="45.76441" lon="5.45293">
        <ele>222.591</ele>
        <time>2018-06-16T13:17:24Z</time>
      </trkpt>
      <trkpt lat="45.76427" lon="5.45295">
        <ele>222.768</ele>
        <time>2018-06-16T13:17:27Z</time>
      </trkpt>
      <trkpt lat="45.76401" lon="5.45298">
        <ele>222.895</ele>
        <time>2018-06-16T13:17:32Z</time>
      </trkpt>
      <trkpt lat="45.76389" lon="5.453">
        <ele>222.864</ele>
        <time>2018-06-16T13:17:35Z</time>
      </trkpt>
      <trkpt lat="45.7638" lon="5.45301">
        <ele>222.495</ele>
        <time>2018-06-16T13:17:37Z</time>
      </trkpt>
      <trkpt lat="45.76327" lon="5.45307">
        <ele>222.655</ele>
        <time>2018-06-16T13:17:48Z</time>
      </trkpt>
      <trkpt lat="45.76299" lon="5.4531">
        <ele>223.02</ele>
        <time>2018-06-16T13:17:54Z</time>
      </trkpt>
      <trkpt lat="45.76272" lon="5.45313">
        <ele>223.414</ele>
        <time>2018-06-16T13:18:00Z</time>
      </trkpt>
      <trkpt lat="45.76223" lon="5.45319">
        <ele>224.538</ele>
        <time>2018-06-16T13:18:11Z</time>
      </trkpt>
      <trkpt lat="45.76161" lon="5.45327">
        <ele>225.883</ele>
        <time>2018-06-16T13:18:24Z</time>
      </trkpt>
      <trkpt lat="45.76143" lon="5.45329">
        <ele>225.047</ele>
        <time>2018-06-16T13:18:28Z</time>
      </trkpt>
      <trkpt lat="45.76124" lon="5.4533">
        <ele>225.954</ele>
        <time>2018-06-16T13:18:32Z</time>
      </trkpt>
      <trkpt lat="45.7608" lon="5.45335">
        <ele>225.609</ele>
        <time>2018-06-16T13:18:41Z</time>
      </trkpt>
      <trkpt lat="45.76069" lon="5.45336">
        <ele>225.539</ele>
        <time>2018-06-16T13:18:43Z</time>
      </trkpt>
      <trkpt lat="45.7602" lon="5.45345">
        <ele>226.136</ele>
        <time>2018-06-16T13:18:53Z</time>
      </trkpt>
      <trkpt lat="45.75978" lon="5.45349">
        <ele>226.938</ele>
        <time>2018-06-16T13:19:02Z</time>
      </trkpt>
      <trkpt lat="45.75952" lon="5.45352">
        <ele>226.684</ele>
        <time>2018-06-16T13:19:10Z</time>
      </trkpt>
      <trkpt lat="45.75941" lon="5.45353">
        <ele>226.501</ele>
        <time>2018-06-16T13:19:17Z</time>
      </trkpt>
      <trkpt lat="45.75908" lon="5.45353">
        <ele>226.798</ele>
        <time>2018-06-16T13:20:58Z</time>
      </trkpt>
      <trkpt lat="45.75874" lon="5.45358">
        <ele>226.32</ele>
        <time>2018-06-16T13:21:08Z</time>
      </trkpt>
      <trkpt lat="45.75837" lon="5.45345">
        <ele>226.082</ele>
        <time>2018-06-16T13:21:18Z</time>
      </trkpt>
      <trkpt lat="45.75804" lon="5.45341">
        <ele>226.034</ele>
        <time>2018-06-16T13:21:27Z</time>
      </trkpt>
      <trkpt lat="45.7575" lon="5.45354">
        <ele>225.334</ele>
        <time>2018-06-16T13:21:40Z</time>
      </trkpt>
      <trkpt lat="45.75687" lon="5.45372">
        <ele>224.255</ele>
        <time>2018-06-16T13:21:53Z</time>
      </trkpt>
      <trkpt lat="45.75627" lon="5.45388">
        <ele>223.683</ele>
        <time>2018-06-16T13:22:06Z</time>
      </trkpt>
      <trkpt lat="45.75588" lon="5.45395">
        <ele>223.715</ele>
        <time>2018-06-16T13:22:14Z</time>
      </trkpt>
      <trkpt lat="45.75545" lon="5.45406">
        <ele>223.482</ele>
        <time>2018-06-16T13:22:23Z</time>
      </trkpt>
      <trkpt lat="45.75518" lon="5.45414">
        <ele>223.636</ele>
        <time>2018-06-16T13:22:29Z</time>
      </trkpt>
      <trkpt lat="45.75495" lon="5.45415">
        <ele>224.433</ele>
        <time>2018-06-16T13:22:35Z</time>
      </trkpt>
      <trkpt lat="45.75476" lon="5.4542">
        <ele>224.656</ele>
        <time>2018-06-16T13:22:41Z</time>
      </trkpt>
      <trkpt lat="45.75444" lon="5.45433">
        <ele>224.718</ele>
        <time>2018-06-16T13:22:50Z</time>
      </trkpt>
      <trkpt lat="45.7544" lon="5.45434">
        <ele>224.718</ele>
        <time>2018-06-16T13:22:51Z</time>
      </trkpt>
      <trkpt lat="45.75419" lon="5.45442">
        <ele>224.955</ele>
        <time>2018-06-16T13:22:57Z</time>
      </trkpt>
      <trkpt lat="45.75391" lon="5.45453">
        <ele>225.581</ele>
        <time>2018-06-16T13:23:05Z</time>
      </trkpt>
      <trkpt lat="45.75377" lon="5.45458">
        <ele>225.625</ele>
        <time>2018-06-16T13:23:10Z</time>
      </trkpt>
      <trkpt lat="45.75344" lon="5.45357">
        <ele>225.132</ele>
        <time>2018-06-16T13:23:15Z</time>
      </trkpt>
      <trkpt lat="45.75304" lon="5.45353">
        <ele>224.99</ele>
        <time>2018-06-16T13:23:23Z</time>
      </trkpt>
      <trkpt lat="45.75295" lon="5.45352">
        <ele>224.714</ele>
        <time>2018-06-16T13:23:25Z</time>
      </trkpt>
      <trkpt lat="45.75286" lon="5.45351">
        <ele>224.515</ele>
        <time>2018-06-16T13:23:27Z</time>
      </trkpt>
      <trkpt lat="45.75254" lon="5.45347">
        <ele>225.463</ele>
        <time>2018-06-16T13:23:35Z</time>
      </trkpt>
      <trkpt lat="45.75215" lon="5.45343">
        <ele>224.675</ele>
        <time>2018-06-16T13:23:46Z</time>
      </trkpt>
      <trkpt lat="45.75184" lon="5.45335">
        <ele>225.642</ele>
        <time>2018-06-16T13:23:54Z</time>
      </trkpt>
      <trkpt lat="45.75161" lon="5.45328">
        <ele>225.853</ele>
        <time>2018-06-16T13:24:00Z</time>
      </trkpt>
      <trkpt lat="45.75132" lon="5.45317">
        <ele>226.234</ele>
        <time>2018-06-16T13:24:08Z</time>
      </trkpt>
      <trkpt lat="45.75102" lon="5.45304">
        <ele>225.737</ele>
        <time>2018-06-16T13:24:16Z</time>
      </trkpt>
      <trkpt lat="45.75072" lon="5.45287">
        <ele>225.788</ele>
        <time>2018-06-16T13:24:24Z</time>
      </trkpt>
      <trkpt lat="45.75046" lon="5.45277">
        <ele>226.438</ele>
        <time>2018-06-16T13:24:31Z</time>
      </trkpt>
      <trkpt lat="45.75007" lon="5.45263">
        <ele>226.652</ele>
        <time>2018-06-16T13:24:41Z</time>
      </trkpt>
      <trkpt lat="45.74973" lon="5.45249">
        <ele>226.316</ele>
        <time>2018-06-16T13:24:50Z</time>
      </trkpt>
      <trkpt lat="45.74969" lon="5.45247">
        <ele>226.314</ele>
        <time>2018-06-16T13:24:51Z</time>
      </trkpt>
      <trkpt lat="45.74934" lon="5.45227">
        <ele>226.306</ele>
        <time>2018-06-16T13:25:00Z</time>
      </trkpt>
      <trkpt lat="45.74911" lon="5.45212">
        <ele>226.735</ele>
        <time>2018-06-16T13:25:06Z</time>
      </trkpt>
      <trkpt lat="45.74908" lon="5.45208">
        <ele>226.732</ele>
        <time>2018-06-16T13:25:07Z</time>
      </trkpt>
      <trkpt lat="45.74885" lon="5.45185">
        <ele>226.449</ele>
        <time>2018-06-16T13:25:14Z</time>
      </trkpt>
      <trkpt lat="45.74862" lon="5.45159">
        <ele>227.15</ele>
        <time>2018-06-16T13:25:21Z</time>
      </trkpt>
      <trkpt lat="45.74835" lon="5.45132">
        <ele>227.049</ele>
        <time>2018-06-16T13:25:29Z</time>
      </trkpt>
      <trkpt lat="45.74803" lon="5.45106">
        <ele>226.503</ele>
        <time>2018-06-16T13:25:38Z</time>
      </trkpt>
      <trkpt lat="45.748" lon="5.45104">
        <ele>226.284</ele>
        <time>2018-06-16T13:25:39Z</time>
      </trkpt>
      <trkpt lat="45.74761" lon="5.45085">
        <ele>226.406</ele>
        <time>2018-06-16T13:25:49Z</time>
      </trkpt>
      <trkpt lat="45.7474" lon="5.45081">
        <ele>226.431</ele>
        <time>2018-06-16T13:25:54Z</time>
      </trkpt>
      <trkpt lat="45.74718" lon="5.45076">
        <ele>226.652</ele>
        <time>2018-06-16T13:26:00Z</time>
      </trkpt>
      <trkpt lat="45.74688" lon="5.45078">
        <ele>226.618</ele>
        <time>2018-06-16T13:26:07Z</time>
      </trkpt>
      <trkpt lat="45.74674" lon="5.45081">
        <ele>227.15</ele>
        <time>2018-06-16T13:26:10Z</time>
      </trkpt>
      <trkpt lat="45.74654" lon="5.45077">
        <ele>226.325</ele>
        <time>2018-06-16T13:26:14Z</time>
      </trkpt>
      <trkpt lat="45.74627" lon="5.45066">
        <ele>226.001</ele>
        <time>2018-06-16T13:26:20Z</time>
      </trkpt>
      <trkpt lat="45.74586" lon="5.45051">
        <ele>226.117</ele>
        <time>2018-06-16T13:26:30Z</time>
      </trkpt>
      <trkpt lat="45.74553" lon="5.45049">
        <ele>226.037</ele>
        <time>2018-06-16T13:26:38Z</time>
      </trkpt>
      <trkpt lat="45.74525" lon="5.45051">
        <ele>225.996</ele>
        <time>2018-06-16T13:26:45Z</time>
      </trkpt>
      <trkpt lat="45.74504" lon="5.45051">
        <ele>225.7</ele>
        <time>2018-06-16T13:26:51Z</time>
      </trkpt>
      <trkpt lat="45.7449" lon="5.4505">
        <ele>225.63</ele>
        <time>2018-06-16T13:26:54Z</time>
      </trkpt>
      <trkpt lat="45.74467" lon="5.4504">
        <ele>226.083</ele>
        <time>2018-06-16T13:27:00Z</time>
      </trkpt>
      <trkpt lat="45.74447" lon="5.45036">
        <ele>225.799</ele>
        <time>2018-06-16T13:27:05Z</time>
      </trkpt>
      <trkpt lat="45.74431" lon="5.45033">
        <ele>226.216</ele>
        <time>2018-06-16T13:27:09Z</time>
      </trkpt>
      <trkpt lat="45.74386" lon="5.45024">
        <ele>227.202</ele>
        <time>2018-06-16T13:27:21Z</time>
      </trkpt>
      <trkpt lat="45.74349" lon="5.45014">
        <ele>228.168</ele>
        <time>2018-06-16T13:27:31Z</time>
      </trkpt>
      <trkpt lat="45.74334" lon="5.45011">
        <ele>228.923</ele>
        <time>2018-06-16T13:27:37Z</time>
      </trkpt>
      <trkpt lat="45.74322" lon="5.45013">
        <ele>228.756</ele>
        <time>2018-06-16T13:27:44Z</time>
      </trkpt>
      <trkpt lat="45.74306" lon="5.45022">
        <ele>228.577</ele>
        <time>2018-06-16T13:30:20Z</time>
      </trkpt>
      <trkpt lat="45.74286" lon="5.45033">
        <ele>228.283</ele>
        <time>2018-06-16T13:30:28Z</time>
      </trkpt>
      <trkpt lat="45.74248" lon="5.45048">
        <ele>227.377</ele>
        <time>2018-06-16T13:30:38Z</time>
      </trkpt>
      <trkpt lat="45.74231" lon="5.45053">
        <ele>226.949</ele>
        <time>2018-06-16T13:30:42Z</time>
      </trkpt>
      <trkpt lat="45.74206" lon="5.45063">
        <ele>226.571</ele>
        <time>2018-06-16T13:30:49Z</time>
      </trkpt>
      <trkpt lat="45.742" lon="5.45029">
        <ele>225.824</ele>
        <time>2018-06-16T13:30:55Z</time>
      </trkpt>
      <trkpt lat="45.74198" lon="5.44966">
        <ele>226.64</ele>
        <time>2018-06-16T13:31:06Z</time>
      </trkpt>
      <trkpt lat="45.74197" lon="5.44944">
        <ele>227.372</ele>
        <time>2018-06-16T13:31:10Z</time>
      </trkpt>
      <trkpt lat="45.7419" lon="5.44912">
        <ele>227.986</ele>
        <time>2018-06-16T13:31:17Z</time>
      </trkpt>
      <trkpt lat="45.74171" lon="5.44905">
        <ele>228.517</ele>
        <time>2018-06-16T13:31:23Z</time>
      </trkpt>
      <trkpt lat="45.7416" lon="5.44906">
        <ele>228.147</ele>
        <time>2018-06-16T13:31:26Z</time>
      </trkpt>
      <trkpt lat="45.74147" lon="5.44905">
        <ele>228.632</ele>
        <time>2018-06-16T13:31:29Z</time>
      </trkpt>
      <trkpt lat="45.74132" lon="5.44913">
        <ele>228.407</ele>
        <time>2018-06-16T13:31:33Z</time>
      </trkpt>
      <trkpt lat="45.74121" lon="5.44934">
        <ele>228.639</ele>
        <time>2018-06-16T13:31:38Z</time>
      </trkpt>
      <trkpt lat="45.74108" lon="5.44942">
        <ele>227.907</ele>
        <time>2018-06-16T13:31:42Z</time>
      </trkpt>
      <trkpt lat="45.74076" lon="5.44938">
        <ele>228.848</ele>
        <time>2018-06-16T13:31:51Z</time>
      </trkpt>
      <trkpt lat="45.74045" lon="5.44933">
        <ele>229.171</ele>
        <time>2018-06-16T13:32:01Z</time>
      </trkpt>
      <trkpt lat="45.74005" lon="5.44916">
        <ele>228.693</ele>
        <time>2018-06-16T13:32:12Z</time>
      </trkpt>
      <trkpt lat="45.73981" lon="5.44909">
        <ele>228.528</ele>
        <time>2018-06-16T13:32:17Z</time>
      </trkpt>
      <trkpt lat="45.73955" lon="5.44921">
        <ele>228.859</ele>
        <time>2018-06-16T13:32:23Z</time>
      </trkpt>
      <trkpt lat="45.73937" lon="5.44935">
        <ele>230.25</ele>
        <time>2018-06-16T13:32:30Z</time>
      </trkpt>
      <trkpt lat="45.73923" lon="5.44936">
        <ele>229.784</ele>
        <time>2018-06-16T13:32:34Z</time>
      </trkpt>
      <trkpt lat="45.73885" lon="5.44953">
        <ele>229.724</ele>
        <time>2018-06-16T13:32:46Z</time>
      </trkpt>
      <trkpt lat="45.73877" lon="5.44987">
        <ele>230.454</ele>
        <time>2018-06-16T13:32:54Z</time>
      </trkpt>
      <trkpt lat="45.73867" lon="5.45007">
        <ele>230.557</ele>
        <time>2018-06-16T13:32:59Z</time>
      </trkpt>
      <trkpt lat="45.73855" lon="5.45024">
        <ele>230.94</ele>
        <time>2018-06-16T13:33:03Z</time>
      </trkpt>
      <trkpt lat="45.73827" lon="5.45051">
        <ele>231.433</ele>
        <time>2018-06-16T13:33:12Z</time>
      </trkpt>
      <trkpt lat="45.73803" lon="5.45059">
        <ele>232.405</ele>
        <time>2018-06-16T13:33:20Z</time>
      </trkpt>
      <trkpt lat="45.73796" lon="5.4506">
        <ele>231.328</ele>
        <time>2018-06-16T13:33:22Z</time>
      </trkpt>
      <trkpt lat="45.73782" lon="5.45076">
        <ele>231.706</ele>
        <time>2018-06-16T13:33:27Z</time>
      </trkpt>
      <trkpt lat="45.73763" lon="5.45109">
        <ele>231.574</ele>
        <time>2018-06-16T13:33:35Z</time>
      </trkpt>
      <trkpt lat="45.73748" lon="5.45186">
        <ele>231.599</ele>
        <time>2018-06-16T13:33:41Z</time>
      </trkpt>
      <trkpt lat="45.7374" lon="5.45186">
        <ele>230.962</ele>
        <time>2018-06-16T13:33:44Z</time>
      </trkpt>
      <trkpt lat="45.73722" lon="5.45187">
        <ele>229.081</ele>
        <time>2018-06-16T13:33:49Z</time>
      </trkpt>
      <trkpt lat="45.73702" lon="5.45186">
        <ele>227.442</ele>
        <time>2018-06-16T13:33:53Z</time>
      </trkpt>
      <trkpt lat="45.73684" lon="5.45187">
        <ele>227.576</ele>
        <time>2018-06-16T13:33:57Z</time>
      </trkpt>
      <trkpt lat="45.73649" lon="5.45177">
        <ele>227.437</ele>
        <time>2018-06-16T13:34:06Z</time>
      </trkpt>
      <trkpt lat="45.73646" lon="5.45175">
        <ele>227.434</ele>
        <time>2018-06-16T13:34:07Z</time>
      </trkpt>
      <trkpt lat="45.73631" lon="5.45163">
        <ele>228.084</ele>
        <time>2018-06-16T13:34:11Z</time>
      </trkpt>
      <trkpt lat="45.73593" lon="5.4513">
        <ele>228.9</ele>
        <time>2018-06-16T13:34:22Z</time>
      </trkpt>
      <trkpt lat="45.73574" lon="5.45112">
        <ele>228.29</ele>
        <time>2018-06-16T13:34:28Z</time>
      </trkpt>
      <trkpt lat="45.73567" lon="5.45096">
        <ele>228.804</ele>
        <time>2018-06-16T13:34:31Z</time>
      </trkpt>
      <trkpt lat="45.73546" lon="5.45058">
        <ele>228.512</ele>
        <time>2018-06-16T13:34:39Z</time>
      </trkpt>
      <trkpt lat="45.73518" lon="5.45036">
        <ele>228.544</ele>
        <time>2018-06-16T13:34:47Z</time>
      </trkpt>
      <trkpt lat="45.73495" lon="5.45029">
        <ele>229.814</ele>
        <time>2018-06-16T13:34:55Z</time>
      </trkpt>
      <trkpt lat="45.73488" lon="5.45027">
        <ele>229.78</ele>
        <time>2018-06-16T13:34:58Z</time>
      </trkpt>
      <trkpt lat="45.73461" lon="5.45026">
        <ele>229.726</ele>
        <time>2018-06-16T13:35:06Z</time>
      </trkpt>
      <trkpt lat="45.7345" lon="5.45025">
        <ele>229.909</ele>
        <time>2018-06-16T13:35:09Z</time>
      </trkpt>
      <trkpt lat="45.73429" lon="5.45022">
        <ele>229.655</ele>
        <time>2018-06-16T13:35:14Z</time>
      </trkpt>
      <trkpt lat="45.73404" lon="5.45025">
        <ele>230.017</ele>
        <time>2018-06-16T13:35:20Z</time>
      </trkpt>
      <trkpt lat="45.73386" lon="5.45035">
        <ele>230.09</ele>
        <time>2018-06-16T13:35:25Z</time>
      </trkpt>
      <trkpt lat="45.73373" lon="5.45039">
        <ele>229.529</ele>
        <time>2018-06-16T13:35:28Z</time>
      </trkpt>
      <trkpt lat="45.73343" lon="5.45036">
        <ele>229.292</ele>
        <time>2018-06-16T13:35:34Z</time>
      </trkpt>
      <trkpt lat="45.73334" lon="5.45033">
        <ele>229.018</ele>
        <time>2018-06-16T13:35:36Z</time>
      </trkpt>
      <trkpt lat="45.73302" lon="5.4501">
        <ele>230.632</ele>
        <time>2018-06-16T13:35:45Z</time>
      </trkpt>
      <trkpt lat="45.73284" lon="5.4499">
        <ele>231.051</ele>
        <time>2018-06-16T13:35:52Z</time>
      </trkpt>
      <trkpt lat="45.73266" lon="5.44972">
        <ele>231.085</ele>
        <time>2018-06-16T13:35:59Z</time>
      </trkpt>
      <trkpt lat="45.73239" lon="5.44948">
        <ele>231.116</ele>
        <time>2018-06-16T13:36:08Z</time>
      </trkpt>
      <trkpt lat="45.73232" lon="5.44943">
        <ele>231.31</ele>
        <time>2018-06-16T13:36:10Z</time>
      </trkpt>
      <trkpt lat="45.73206" lon="5.44931">
        <ele>233.112</ele>
        <time>2018-06-16T13:36:18Z</time>
      </trkpt>
      <trkpt lat="45.73203" lon="5.44931">
        <ele>233.11</ele>
        <time>2018-06-16T13:36:19Z</time>
      </trkpt>
      <trkpt lat="45.73179" lon="5.44938">
        <ele>233.468</ele>
        <time>2018-06-16T13:36:27Z</time>
      </trkpt>
      <trkpt lat="45.73154" lon="5.44953">
        <ele>235.22</ele>
        <time>2018-06-16T13:36:35Z</time>
      </trkpt>
      <trkpt lat="45.73127" lon="5.44973">
        <ele>235.305</ele>
        <time>2018-06-16T13:36:44Z</time>
      </trkpt>
      <trkpt lat="45.73106" lon="5.44992">
        <ele>235.138</ele>
        <time>2018-06-16T13:36:51Z</time>
      </trkpt>
      <trkpt lat="45.7309" lon="5.44997">
        <ele>233.756</ele>
        <time>2018-06-16T13:36:54Z</time>
      </trkpt>
      <trkpt lat="45.73046" lon="5.44988">
        <ele>232.087</ele>
        <time>2018-06-16T13:37:02Z</time>
      </trkpt>
      <trkpt lat="45.73041" lon="5.44986">
        <ele>232.085</ele>
        <time>2018-06-16T13:37:03Z</time>
      </trkpt>
      <trkpt lat="45.73012" lon="5.44975">
        <ele>231.859</ele>
        <time>2018-06-16T13:37:09Z</time>
      </trkpt>
      <trkpt lat="45.72991" lon="5.44967">
        <ele>232.303</ele>
        <time>2018-06-16T13:37:14Z</time>
      </trkpt>
      <trkpt lat="45.72974" lon="5.44964">
        <ele>232.624</ele>
        <time>2018-06-16T13:37:18Z</time>
      </trkpt>
      <trkpt lat="45.72957" lon="5.4496">
        <ele>232.588</ele>
        <time>2018-06-16T13:37:22Z</time>
      </trkpt>
      <trkpt lat="45.72924" lon="5.44937">
        <ele>230.759</ele>
        <time>2018-06-16T13:37:29Z</time>
      </trkpt>
      <trkpt lat="45.72887" lon="5.44931">
        <ele>230.308</ele>
        <time>2018-06-16T13:37:36Z</time>
      </trkpt>
      <trkpt lat="45.72883" lon="5.44931">
        <ele>230.307</ele>
        <time>2018-06-16T13:37:37Z</time>
      </trkpt>
      <trkpt lat="45.72855" lon="5.44935">
        <ele>229.791</ele>
        <time>2018-06-16T13:37:44Z</time>
      </trkpt>
      <trkpt lat="45.72849" lon="5.44936">
        <ele>230.246</ele>
        <time>2018-06-16T13:42:10Z</time>
      </trkpt>
      <trkpt lat="45.72849" lon="5.44911">
        <ele>230.779</ele>
        <time>2018-06-16T13:42:18Z</time>
      </trkpt>
      <trkpt lat="45.72855" lon="5.44884">
        <ele>231.437</ele>
        <time>2018-06-16T13:42:25Z</time>
      </trkpt>
      <trkpt lat="45.72862" lon="5.44857">
        <ele>232.62</ele>
        <time>2018-06-16T13:42:33Z</time>
      </trkpt>
      <trkpt lat="45.72863" lon="5.44849">
        <ele>232.888</ele>
        <time>2018-06-16T13:42:35Z</time>
      </trkpt>
      <trkpt lat="45.7286" lon="5.44817">
        <ele>233.581</ele>
        <time>2018-06-16T13:42:44Z</time>
      </trkpt>
      <trkpt lat="45.72857" lon="5.44776">
        <ele>232.574</ele>
        <time>2018-06-16T13:42:52Z</time>
      </trkpt>
      <trkpt lat="45.72856" lon="5.44772">
        <ele>232.647</ele>
        <time>2018-06-16T13:42:53Z</time>
      </trkpt>
      <trkpt lat="45.72851" lon="5.44748">
        <ele>232.841</ele>
        <time>2018-06-16T13:42:59Z</time>
      </trkpt>
      <trkpt lat="45.72851" lon="5.44742">
        <ele>233.173</ele>
        <time>2018-06-16T13:43:00Z</time>
      </trkpt>
      <trkpt lat="45.72853" lon="5.44702">
        <ele>233.283</ele>
        <time>2018-06-16T13:43:08Z</time>
      </trkpt>
      <trkpt lat="45.72847" lon="5.44672">
        <ele>233.914</ele>
        <time>2018-06-16T13:43:15Z</time>
      </trkpt>
      <trkpt lat="45.72848" lon="5.44643">
        <ele>235.294</ele>
        <time>2018-06-16T13:43:22Z</time>
      </trkpt>
      <trkpt lat="45.72855" lon="5.44612">
        <ele>236.494</ele>
        <time>2018-06-16T13:43:29Z</time>
      </trkpt>
      <trkpt lat="45.72858" lon="5.44603">
        <ele>237.79</ele>
        <time>2018-06-16T13:43:32Z</time>
      </trkpt>
      <trkpt lat="45.72866" lon="5.44578">
        <ele>239.508</ele>
        <time>2018-06-16T13:43:40Z</time>
      </trkpt>
      <trkpt lat="45.72874" lon="5.44559">
        <ele>240.594</ele>
        <time>2018-06-16T13:43:46Z</time>
      </trkpt>
      <trkpt lat="45.72888" lon="5.44521">
        <ele>242.048</ele>
        <time>2018-06-16T13:43:57Z</time>
      </trkpt>
      <trkpt lat="45.72889" lon="5.44516">
        <ele>241.745</ele>
        <time>2018-06-16T13:43:58Z</time>
      </trkpt>
      <trkpt lat="45.72905" lon="5.4449">
        <ele>241.38</ele>
        <time>2018-06-16T13:44:04Z</time>
      </trkpt>
      <trkpt lat="45.72925" lon="5.44472">
        <ele>240.371</ele>
        <time>2018-06-16T13:44:10Z</time>
      </trkpt>
      <trkpt lat="45.72939" lon="5.44454">
        <ele>240.292</ele>
        <time>2018-06-16T13:44:16Z</time>
      </trkpt>
      <trkpt lat="45.72946" lon="5.44446">
        <ele>240.228</ele>
        <time>2018-06-16T13:44:20Z</time>
      </trkpt>
      <trkpt lat="45.72962" lon="5.44416">
        <ele>239.296</ele>
        <time>2018-06-16T13:44:28Z</time>
      </trkpt>
      <trkpt lat="45.72972" lon="5.44388">
        <ele>236.732</ele>
        <time>2018-06-16T13:44:34Z</time>
      </trkpt>
      <trkpt lat="45.72973" lon="5.44375">
        <ele>236.591</ele>
        <time>2018-06-16T13:44:39Z</time>
      </trkpt>
      <trkpt lat="45.72976" lon="5.44355">
        <ele>237.003</ele>
        <time>2018-06-16T13:46:52Z</time>
      </trkpt>
      <trkpt lat="45.72958" lon="5.4434">
        <ele>235.348</ele>
        <time>2018-06-16T13:46:58Z</time>
      </trkpt>
      <trkpt lat="45.72956" lon="5.44337">
        <ele>234.963</ele>
        <time>2018-06-16T13:46:59Z</time>
      </trkpt>
      <trkpt lat="45.72943" lon="5.44318">
        <ele>233.842</ele>
        <time>2018-06-16T13:47:03Z</time>
      </trkpt>
      <trkpt lat="45.72918" lon="5.44296">
        <ele>234.569</ele>
        <time>2018-06-16T13:47:10Z</time>
      </trkpt>
      <trkpt lat="45.72908" lon="5.44288">
        <ele>231.905</ele>
        <time>2018-06-16T13:47:14Z</time>
      </trkpt>
      <trkpt lat="45.72889" lon="5.44271">
        <ele>229.401</ele>
        <time>2018-06-16T13:47:18Z</time>
      </trkpt>
      <trkpt lat="45.72869" lon="5.44248">
        <ele>229.245</ele>
        <time>2018-06-16T13:47:22Z</time>
      </trkpt>
      <trkpt lat="45.72858" lon="5.44234">
        <ele>229.23</ele>
        <time>2018-06-16T13:47:25Z</time>
      </trkpt>
      <trkpt lat="45.72847" lon="5.44218">
        <ele>229.29</ele>
        <time>2018-06-16T13:47:30Z</time>
      </trkpt>
      <trkpt lat="45.72836" lon="5.44196">
        <ele>229.784</ele>
        <time>2018-06-16T13:47:35Z</time>
      </trkpt>
      <trkpt lat="45.72824" lon="5.44172">
        <ele>229.438</ele>
        <time>2018-06-16T13:47:40Z</time>
      </trkpt>
      <trkpt lat="45.7281" lon="5.44149">
        <ele>230.179</ele>
        <time>2018-06-16T13:47:47Z</time>
      </trkpt>
      <trkpt lat="45.72795" lon="5.44134">
        <ele>231.757</ele>
        <time>2018-06-16T13:47:55Z</time>
      </trkpt>
      <trkpt lat="45.7279" lon="5.44129">
        <ele>232.102</ele>
        <time>2018-06-16T13:47:58Z</time>
      </trkpt>
      <trkpt lat="45.72788" lon="5.44127">
        <ele>232.074</ele>
        <time>2018-06-16T13:48:00Z</time>
      </trkpt>
      <trkpt lat="45.72777" lon="5.4411">
        <ele>232.551</ele>
        <time>2018-06-16T13:48:07Z</time>
      </trkpt>
      <trkpt lat="45.72767" lon="5.44085">
        <ele>232.772</ele>
        <time>2018-06-16T13:48:15Z</time>
      </trkpt>
      <trkpt lat="45.72762" lon="5.44057">
        <ele>234.562</ele>
        <time>2018-06-16T13:48:25Z</time>
      </trkpt>
      <trkpt lat="45.7276" lon="5.44031">
        <ele>235.995</ele>
        <time>2018-06-16T13:48:34Z</time>
      </trkpt>
      <trkpt lat="45.7276" lon="5.44024">
        <ele>236.088</ele>
        <time>2018-06-16T13:48:36Z</time>
      </trkpt>
      <trkpt lat="45.72758" lon="5.43999">
        <ele>237.049</ele>
        <time>2018-06-16T13:48:44Z</time>
      </trkpt>
      <trkpt lat="45.72757" lon="5.43968">
        <ele>238.579</ele>
        <time>2018-06-16T13:48:54Z</time>
      </trkpt>
      <trkpt lat="45.72754" lon="5.4393">
        <ele>239.321</ele>
        <time>2018-06-16T13:49:07Z</time>
      </trkpt>
      <trkpt lat="45.72752" lon="5.43899">
        <ele>238.27</ele>
        <time>2018-06-16T13:49:16Z</time>
      </trkpt>
      <trkpt lat="45.7275" lon="5.43865">
        <ele>238.217</ele>
        <time>2018-06-16T13:49:24Z</time>
      </trkpt>
      <trkpt lat="45.7275" lon="5.43841">
        <ele>238.76</ele>
        <time>2018-06-16T13:49:31Z</time>
      </trkpt>
      <trkpt lat="45.7275" lon="5.43816">
        <ele>239.712</ele>
        <time>2018-06-16T13:49:39Z</time>
      </trkpt>
      <trkpt lat="45.72756" lon="5.43777">
        <ele>240.582</ele>
        <time>2018-06-16T13:49:52Z</time>
      </trkpt>
      <trkpt lat="45.72762" lon="5.43753">
        <ele>241.202</ele>
        <time>2018-06-16T13:50:00Z</time>
      </trkpt>
      <trkpt lat="45.72771" lon="5.43716">
        <ele>241.896</ele>
        <time>2018-06-16T13:50:10Z</time>
      </trkpt>
      <trkpt lat="45.72779" lon="5.43684">
        <ele>242.133</ele>
        <time>2018-06-16T13:50:20Z</time>
      </trkpt>
      <trkpt lat="45.72788" lon="5.43648">
        <ele>242.158</ele>
        <time>2018-06-16T13:50:29Z</time>
      </trkpt>
      <trkpt lat="45.72797" lon="5.43605">
        <ele>242.087</ele>
        <time>2018-06-16T13:50:41Z</time>
      </trkpt>
      <trkpt lat="45.72805" lon="5.43573">
        <ele>242.702</ele>
        <time>2018-06-16T13:50:50Z</time>
      </trkpt>
      <trkpt lat="45.72811" lon="5.43543">
        <ele>242.514</ele>
        <time>2018-06-16T13:50:59Z</time>
      </trkpt>
      <trkpt lat="45.72819" lon="5.43509">
        <ele>243.071</ele>
        <time>2018-06-16T13:51:11Z</time>
      </trkpt>
      <trkpt lat="45.72826" lon="5.43479">
        <ele>243.879</ele>
        <time>2018-06-16T13:51:20Z</time>
      </trkpt>
      <trkpt lat="45.72831" lon="5.43461">
        <ele>243.842</ele>
        <time>2018-06-16T13:51:30Z</time>
      </trkpt>
      <trkpt lat="45.72835" lon="5.43448">
        <ele>243.854</ele>
        <time>2018-06-16T13:54:51Z</time>
      </trkpt>
      <trkpt lat="45.72862" lon="5.43452">
        <ele>243.527</ele>
        <time>2018-06-16T13:55:02Z</time>
      </trkpt>
      <trkpt lat="45.72881" lon="5.43455">
        <ele>243.293</ele>
        <time>2018-06-16T13:55:09Z</time>
      </trkpt>
      <trkpt lat="45.72906" lon="5.43458">
        <ele>243.184</ele>
        <time>2018-06-16T13:55:18Z</time>
      </trkpt>
      <trkpt lat="45.72932" lon="5.43462">
        <ele>242.784</ele>
        <time>2018-06-16T13:55:29Z</time>
      </trkpt>
      <trkpt lat="45.72952" lon="5.43465">
        <ele>242.33</ele>
        <time>2018-06-16T13:55:38Z</time>
      </trkpt>
      <trkpt lat="45.72954" lon="5.4344">
        <ele>243.144</ele>
        <time>2018-06-16T13:55:45Z</time>
      </trkpt>
      <trkpt lat="45.72951" lon="5.4341">
        <ele>244.497</ele>
        <time>2018-06-16T13:55:53Z</time>
      </trkpt>
      <trkpt lat="45.72945" lon="5.43366">
        <ele>245.071</ele>
        <time>2018-06-16T13:56:04Z</time>
      </trkpt>
      <trkpt lat="45.72935" lon="5.43323">
        <ele>242.781</ele>
        <time>2018-06-16T13:56:14Z</time>
      </trkpt>
      <trkpt lat="45.7292" lon="5.43275">
        <ele>240.723</ele>
        <time>2018-06-16T13:56:21Z</time>
      </trkpt>
      <trkpt lat="45.7291" lon="5.43243">
        <ele>240.034</ele>
        <time>2018-06-16T13:56:25Z</time>
      </trkpt>
      <trkpt lat="45.72905" lon="5.43227">
        <ele>240.219</ele>
        <time>2018-06-16T13:56:27Z</time>
      </trkpt>
      <trkpt lat="45.72878" lon="5.43142">
        <ele>238.26</ele>
        <time>2018-06-16T13:56:38Z</time>
      </trkpt>
      <trkpt lat="45.72849" lon="5.4307">
        <ele>238.638</ele>
        <time>2018-06-16T13:56:47Z</time>
      </trkpt>
      <trkpt lat="45.72846" lon="5.43061">
        <ele>238.638</ele>
        <time>2018-06-16T13:56:48Z</time>
      </trkpt>
      <trkpt lat="45.72807" lon="5.42996">
        <ele>238.864</ele>
        <time>2018-06-16T13:56:57Z</time>
      </trkpt>
      <trkpt lat="45.7278" lon="5.42937">
        <ele>239.979</ele>
        <time>2018-06-16T13:57:05Z</time>
      </trkpt>
      <trkpt lat="45.72758" lon="5.42871">
        <ele>238.774</ele>
        <time>2018-06-16T13:57:14Z</time>
      </trkpt>
      <trkpt lat="45.72749" lon="5.42836">
        <ele>238.381</ele>
        <time>2018-06-16T13:57:19Z</time>
      </trkpt>
      <trkpt lat="45.72743" lon="5.42818">
        <ele>238.838</ele>
        <time>2018-06-16T13:57:22Z</time>
      </trkpt>
      <trkpt lat="45.72728" lon="5.42788">
        <ele>237.77</ele>
        <time>2018-06-16T13:57:28Z</time>
      </trkpt>
      <trkpt lat="45.72694" lon="5.42752">
        <ele>238.11</ele>
        <time>2018-06-16T13:57:39Z</time>
      </trkpt>
      <trkpt lat="45.72658" lon="5.42724">
        <ele>237.77</ele>
        <time>2018-06-16T13:57:49Z</time>
      </trkpt>
      <trkpt lat="45.72643" lon="5.42715">
        <ele>236.936</ele>
        <time>2018-06-16T13:57:55Z</time>
      </trkpt>
      <trkpt lat="45.72643" lon="5.42696">
        <ele>236.147</ele>
        <time>2018-06-16T13:58:01Z</time>
      </trkpt>
      <trkpt lat="45.72652" lon="5.42678">
        <ele>235.949</ele>
        <time>2018-06-16T13:58:08Z</time>
      </trkpt>
      <trkpt lat="45.72663" lon="5.42651">
        <ele>234.853</ele>
        <time>2018-06-16T13:58:16Z</time>
      </trkpt>
      <trkpt lat="45.72671" lon="5.42629">
        <ele>234.1</ele>
        <time>2018-06-16T13:58:21Z</time>
      </trkpt>
      <trkpt lat="45.72675" lon="5.42613">
        <ele>232.448</ele>
        <time>2018-06-16T13:58:24Z</time>
      </trkpt>
      <trkpt lat="45.72677" lon="5.426">
        <ele>231.829</ele>
        <time>2018-06-16T13:58:26Z</time>
      </trkpt>
      <trkpt lat="45.72684" lon="5.4256">
        <ele>229.516</ele>
        <time>2018-06-16T13:58:33Z</time>
      </trkpt>
      <trkpt lat="45.72686" lon="5.42534">
        <ele>229.61</ele>
        <time>2018-06-16T13:58:41Z</time>
      </trkpt>
      <trkpt lat="45.72681" lon="5.42521">
        <ele>228.793</ele>
        <time>2018-06-16T13:59:29Z</time>
      </trkpt>
      <trkpt lat="45.72681" lon="5.42482">
        <ele>228.198</ele>
        <time>2018-06-16T13:59:34Z</time>
      </trkpt>
      <trkpt lat="45.72681" lon="5.42479">
        <ele>228.198</ele>
        <time>2018-06-16T13:59:35Z</time>
      </trkpt>
      <trkpt lat="45.72681" lon="5.42462">
        <ele>226.86</ele>
        <time>2018-06-16T13:59:41Z</time>
      </trkpt>
      <trkpt lat="45.72681" lon="5.42478">
        <ele>226.831</ele>
        <time>2018-06-16T13:59:44Z</time>
      </trkpt>
      <trkpt lat="45.72681" lon="5.42455">
        <ele>227.426</ele>
        <time>2018-06-16T13:59:46Z</time>
      </trkpt>
      <trkpt lat="45.72681" lon="5.42448">
        <ele>226.507</ele>
        <time>2018-06-16T13:59:49Z</time>
      </trkpt>
      <trkpt lat="45.72681" lon="5.42426">
        <ele>226.309</ele>
        <time>2018-06-16T13:59:55Z</time>
      </trkpt>
      <trkpt lat="45.72681" lon="5.42417">
        <ele>226.61</ele>
        <time>2018-06-16T14:00:54Z</time>
      </trkpt>
      <trkpt lat="45.72681" lon="5.42413">
        <ele>226.186</ele>
        <time>2018-06-16T14:01:02Z</time>
      </trkpt>
      <trkpt lat="45.72681" lon="5.42403">
        <ele>226.269</ele>
        <time>2018-06-16T14:01:40Z</time>
      </trkpt>
      <trkpt lat="45.72681" lon="5.42383">
        <ele>228.427</ele>
        <time>2018-06-16T14:13:30Z</time>
      </trkpt>
      <trkpt lat="45.72681" lon="5.4237">
        <ele>228.178</ele>
        <time>2018-06-16T14:13:35Z</time>
      </trkpt>
      <trkpt lat="45.72681" lon="5.42342">
        <ele>227.915</ele>
        <time>2018-06-16T14:13:42Z</time>
      </trkpt>
      <trkpt lat="45.72681" lon="5.42321">
        <ele>227.524</ele>
        <time>2018-06-16T14:13:47Z</time>
      </trkpt>
      <trkpt lat="45.72679" lon="5.42277">
        <ele>228.044</ele>
        <time>2018-06-16T14:13:58Z</time>
      </trkpt>
      <trkpt lat="45.72679" lon="5.42256">
        <ele>228.321</ele>
        <time>2018-06-16T14:14:04Z</time>
      </trkpt>
      <trkpt lat="45.72678" lon="5.42237">
        <ele>227.965</ele>
        <time>2018-06-16T14:14:09Z</time>
      </trkpt>
      <trkpt lat="45.72676" lon="5.4219">
        <ele>228.108</ele>
        <time>2018-06-16T14:14:21Z</time>
      </trkpt>
      <trkpt lat="45.72676" lon="5.42184">
        <ele>228.045</ele>
        <time>2018-06-16T14:14:28Z</time>
      </trkpt>
      <trkpt lat="45.72676" lon="5.4217">
        <ele>228.732</ele>
        <time>2018-06-16T14:15:15Z</time>
      </trkpt>
      <trkpt lat="45.72676" lon="5.42152">
        <ele>228.329</ele>
        <time>2018-06-16T14:15:24Z</time>
      </trkpt>
      <trkpt lat="45.72655" lon="5.42127">
        <ele>228.72</ele>
        <time>2018-06-16T14:15:33Z</time>
      </trkpt>
      <trkpt lat="45.72636" lon="5.42126">
        <ele>228.431</ele>
        <time>2018-06-16T14:15:41Z</time>
      </trkpt>
      <trkpt lat="45.72615" lon="5.4213">
        <ele>228.555</ele>
        <time>2018-06-16T14:15:52Z</time>
      </trkpt>
      <trkpt lat="45.72593" lon="5.42132">
        <ele>228.146</ele>
        <time>2018-06-16T14:16:03Z</time>
      </trkpt>
      <trkpt lat="45.72571" lon="5.42132">
        <ele>227.978</ele>
        <time>2018-06-16T14:16:13Z</time>
      </trkpt>
      <trkpt lat="45.72547" lon="5.42132">
        <ele>227.846</ele>
        <time>2018-06-16T14:16:24Z</time>
      </trkpt>
      <trkpt lat="45.72526" lon="5.42129">
        <ele>228.402</ele>
        <time>2018-06-16T14:16:33Z</time>
      </trkpt>
      <trkpt lat="45.72508" lon="5.42126">
        <ele>228.361</ele>
        <time>2018-06-16T14:16:41Z</time>
      </trkpt>
      <trkpt lat="45.72502" lon="5.42125">
        <ele>228.471</ele>
        <time>2018-06-16T14:16:44Z</time>
      </trkpt>
      <trkpt lat="45.72482" lon="5.42122">
        <ele>228.602</ele>
        <time>2018-06-16T14:16:54Z</time>
      </trkpt>
      <trkpt lat="45.72459" lon="5.42117">
        <ele>228.846</ele>
        <time>2018-06-16T14:17:04Z</time>
      </trkpt>
      <trkpt lat="45.72432" lon="5.42115">
        <ele>228.961</ele>
        <time>2018-06-16T14:17:15Z</time>
      </trkpt>
      <trkpt lat="45.72409" lon="5.42113">
        <ele>228.507</ele>
        <time>2018-06-16T14:17:24Z</time>
      </trkpt>
      <trkpt lat="45.72387" lon="5.42111">
        <ele>228.588</ele>
        <time>2018-06-16T14:17:32Z</time>
      </trkpt>
      <trkpt lat="45.72361" lon="5.42109">
        <ele>228.686</ele>
        <time>2018-06-16T14:17:43Z</time>
      </trkpt>
      <trkpt lat="45.72359" lon="5.42109">
        <ele>228.568</ele>
        <time>2018-06-16T14:17:48Z</time>
      </trkpt>
      <trkpt lat="45.72347" lon="5.42113">
        <ele>228.244</ele>
        <time>2018-06-16T14:17:58Z</time>
      </trkpt>
      <trkpt lat="45.7234" lon="5.42109">
        <ele>228.253</ele>
        <time>2018-06-16T14:18:04Z</time>
      </trkpt>
      <trkpt lat="45.72319" lon="5.42109">
        <ele>228.48</ele>
        <time>2018-06-16T14:18:13Z</time>
      </trkpt>
      <trkpt lat="45.72296" lon="5.42112">
        <ele>228.296</ele>
        <time>2018-06-16T14:18:22Z</time>
      </trkpt>
      <trkpt lat="45.72278" lon="5.42111">
        <ele>228.672</ele>
        <time>2018-06-16T14:18:29Z</time>
      </trkpt>
      <trkpt lat="45.72261" lon="5.42096">
        <ele>228.46</ele>
        <time>2018-06-16T14:18:38Z</time>
      </trkpt>
      <trkpt lat="45.72246" lon="5.42081">
        <ele>228.503</ele>
        <time>2018-06-16T14:18:46Z</time>
      </trkpt>
      <trkpt lat="45.72231" lon="5.42062">
        <ele>229.009</ele>
        <time>2018-06-16T14:18:55Z</time>
      </trkpt>
      <trkpt lat="45.72219" lon="5.42044">
        <ele>228.876</ele>
        <time>2018-06-16T14:19:04Z</time>
      </trkpt>
      <trkpt lat="45.72204" lon="5.42019">
        <ele>229.003</ele>
        <time>2018-06-16T14:19:14Z</time>
      </trkpt>
      <trkpt lat="45.72194" lon="5.42004">
        <ele>228.828</ele>
        <time>2018-06-16T14:19:21Z</time>
      </trkpt>
      <trkpt lat="45.7218" lon="5.4199">
        <ele>228.226</ele>
        <time>2018-06-16T14:19:29Z</time>
      </trkpt>
      <trkpt lat="45.72156" lon="5.41982">
        <ele>228.14</ele>
        <time>2018-06-16T14:19:41Z</time>
      </trkpt>
      <trkpt lat="45.72134" lon="5.41978">
        <ele>228.459</ele>
        <time>2018-06-16T14:19:51Z</time>
      </trkpt>
      <trkpt lat="45.72113" lon="5.41976">
        <ele>228.255</ele>
        <time>2018-06-16T14:20:00Z</time>
      </trkpt>
      <trkpt lat="45.72093" lon="5.41977">
        <ele>228.319</ele>
        <time>2018-06-16T14:20:09Z</time>
      </trkpt>
      <trkpt lat="45.7207" lon="5.41981">
        <ele>228.115</ele>
        <time>2018-06-16T14:20:19Z</time>
      </trkpt>
      <trkpt lat="45.72043" lon="5.41985">
        <ele>228.223</ele>
        <time>2018-06-16T14:20:30Z</time>
      </trkpt>
      <trkpt lat="45.72019" lon="5.41989">
        <ele>228.16</ele>
        <time>2018-06-16T14:20:40Z</time>
      </trkpt>
      <trkpt lat="45.71993" lon="5.41992">
        <ele>228.585</ele>
        <time>2018-06-16T14:20:51Z</time>
      </trkpt>
      <trkpt lat="45.71969" lon="5.42001">
        <ele>227.954</ele>
        <time>2018-06-16T14:21:01Z</time>
      </trkpt>
      <trkpt lat="45.71956" lon="5.4201">
        <ele>228.156</ele>
        <time>2018-06-16T14:21:08Z</time>
      </trkpt>
      <trkpt lat="45.71935" lon="5.42023">
        <ele>228.414</ele>
        <time>2018-06-16T14:21:18Z</time>
      </trkpt>
      <trkpt lat="45.71926" lon="5.42028">
        <ele>228.493</ele>
        <time>2018-06-16T14:21:26Z</time>
      </trkpt>
      <trkpt lat="45.71913" lon="5.42036">
        <ele>228.213</ele>
        <time>2018-06-16T14:22:33Z</time>
      </trkpt>
      <trkpt lat="45.71891" lon="5.4205">
        <ele>228.133</ele>
        <time>2018-06-16T14:22:42Z</time>
      </trkpt>
      <trkpt lat="45.71871" lon="5.42064">
        <ele>228.744</ele>
        <time>2018-06-16T14:22:50Z</time>
      </trkpt>
      <trkpt lat="45.71863" lon="5.42066">
        <ele>229.454</ele>
        <time>2018-06-16T14:22:56Z</time>
      </trkpt>
      <trkpt lat="45.71851" lon="5.42072">
        <ele>228.874</ele>
        <time>2018-06-16T14:23:18Z</time>
      </trkpt>
      <trkpt lat="45.71822" lon="5.42097">
        <ele>228.968</ele>
        <time>2018-06-16T14:23:44Z</time>
      </trkpt>
      <trkpt lat="45.71826" lon="5.42121">
        <ele>228.527</ele>
        <time>2018-06-16T14:23:51Z</time>
      </trkpt>
      <trkpt lat="45.71827" lon="5.42128">
        <ele>228.188</ele>
        <time>2018-06-16T14:23:53Z</time>
      </trkpt>
      <trkpt lat="45.71829" lon="5.42141">
        <ele>229.48</ele>
        <time>2018-06-16T14:23:58Z</time>
      </trkpt>
      <trkpt lat="45.7183" lon="5.4215">
        <ele>229.081</ele>
        <time>2018-06-16T14:24:00Z</time>
      </trkpt>
      <trkpt lat="45.7186" lon="5.4218">
        <ele>229.15</ele>
        <time>2018-06-16T14:24:12Z</time>
      </trkpt>
      <trkpt lat="45.71866" lon="5.4221">
        <ele>229.955</ele>
        <time>2018-06-16T14:24:14Z</time>
      </trkpt>
      <trkpt lat="45.71871" lon="5.4221">
        <ele>229.706</ele>
        <time>2018-06-16T14:24:22Z</time>
      </trkpt>
      <trkpt lat="45.71874" lon="5.4221">
        <ele>230.018</ele>
        <time>2018-06-16T14:24:31Z</time>
      </trkpt>
      <trkpt lat="45.71879" lon="5.4221">
        <ele>230.421</ele>
        <time>2018-06-16T14:25:43Z</time>
      </trkpt>
      <trkpt lat="45.71896" lon="5.42213">
        <ele>230.728</ele>
        <time>2018-06-16T14:25:50Z</time>
      </trkpt>
      <trkpt lat="45.71923" lon="5.42217">
        <ele>231.427</ele>
        <time>2018-06-16T14:26:00Z</time>
      </trkpt>
      <trkpt lat="45.71944" lon="5.42222">
        <ele>231.881</ele>
        <time>2018-06-16T14:26:08Z</time>
      </trkpt>
      <trkpt lat="45.7197" lon="5.42229">
        <ele>231.422</ele>
        <time>2018-06-16T14:26:17Z</time>
      </trkpt>
      <trkpt lat="45.71995" lon="5.42237">
        <ele>231.167</ele>
        <time>2018-06-16T14:26:25Z</time>
      </trkpt>
      <trkpt lat="45.72028" lon="5.42248">
        <ele>231.173</ele>
        <time>2018-06-16T14:26:35Z</time>
      </trkpt>
      <trkpt lat="45.72059" lon="5.42256">
        <ele>230.757</ele>
        <time>2018-06-16T14:26:44Z</time>
      </trkpt>
      <trkpt lat="45.72084" lon="5.42264">
        <ele>231.066</ele>
        <time>2018-06-16T14:26:52Z</time>
      </trkpt>
      <trkpt lat="45.72116" lon="5.42276">
        <ele>230.766</ele>
        <time>2018-06-16T14:27:02Z</time>
      </trkpt>
      <trkpt lat="45.72152" lon="5.42291">
        <ele>230.956</ele>
        <time>2018-06-16T14:27:11Z</time>
      </trkpt>
      <trkpt lat="45.72181" lon="5.42302">
        <ele>231.941</ele>
        <time>2018-06-16T14:27:20Z</time>
      </trkpt>
      <trkpt lat="45.72203" lon="5.42309">
        <ele>233.215</ele>
        <time>2018-06-16T14:27:28Z</time>
      </trkpt>
      <trkpt lat="45.72234" lon="5.42319">
        <ele>232.057</ele>
        <time>2018-06-16T14:27:37Z</time>
      </trkpt>
      <trkpt lat="45.72263" lon="5.42329">
        <ele>232.889</ele>
        <time>2018-06-16T14:27:45Z</time>
      </trkpt>
      <trkpt lat="45.72294" lon="5.42341">
        <ele>232.589</ele>
        <time>2018-06-16T14:27:54Z</time>
      </trkpt>
      <trkpt lat="45.72327" lon="5.42353">
        <ele>232.739</ele>
        <time>2018-06-16T14:28:04Z</time>
      </trkpt>
      <trkpt lat="45.72361" lon="5.42365">
        <ele>232.832</ele>
        <time>2018-06-16T14:28:13Z</time>
      </trkpt>
      <trkpt lat="45.72387" lon="5.42375">
        <ele>232.662</ele>
        <time>2018-06-16T14:28:21Z</time>
      </trkpt>
      <trkpt lat="45.72418" lon="5.42386">
        <ele>232.574</ele>
        <time>2018-06-16T14:28:30Z</time>
      </trkpt>
      <trkpt lat="45.72454" lon="5.42402">
        <ele>231.817</ele>
        <time>2018-06-16T14:28:39Z</time>
      </trkpt>
      <trkpt lat="45.72484" lon="5.42416">
        <ele>232.247</ele>
        <time>2018-06-16T14:28:48Z</time>
      </trkpt>
      <trkpt lat="45.7252" lon="5.42435">
        <ele>232.8</ele>
        <time>2018-06-16T14:28:58Z</time>
      </trkpt>
      <trkpt lat="45.72555" lon="5.42453">
        <ele>232.908</ele>
        <time>2018-06-16T14:29:08Z</time>
      </trkpt>
      <trkpt lat="45.72594" lon="5.42474">
        <ele>232.359</ele>
        <time>2018-06-16T14:29:18Z</time>
      </trkpt>
      <trkpt lat="45.7263" lon="5.42493">
        <ele>232.014</ele>
        <time>2018-06-16T14:29:27Z</time>
      </trkpt>
      <trkpt lat="45.72672" lon="5.42514">
        <ele>231.623</ele>
        <time>2018-06-16T14:29:36Z</time>
      </trkpt>
      <trkpt lat="45.72686" lon="5.42535">
        <ele>232.649</ele>
        <time>2018-06-16T14:29:41Z</time>
      </trkpt>
      <trkpt lat="45.72703" lon="5.42544">
        <ele>233.398</ele>
        <time>2018-06-16T14:29:47Z</time>
      </trkpt>
      <trkpt lat="45.72724" lon="5.42554">
        <ele>233.222</ele>
        <time>2018-06-16T14:29:55Z</time>
      </trkpt>
      <trkpt lat="45.72746" lon="5.42566">
        <ele>233.465</ele>
        <time>2018-06-16T14:30:04Z</time>
      </trkpt>
      <trkpt lat="45.72764" lon="5.42576">
        <ele>233.045</ele>
        <time>2018-06-16T14:30:10Z</time>
      </trkpt>
      <trkpt lat="45.72787" lon="5.42588">
        <ele>233.217</ele>
        <time>2018-06-16T14:30:17Z</time>
      </trkpt>
      <trkpt lat="45.72797" lon="5.42594">
        <ele>233.062</ele>
        <time>2018-06-16T14:30:20Z</time>
      </trkpt>
      <trkpt lat="45.72811" lon="5.426">
        <ele>232.632</ele>
        <time>2018-06-16T14:30:23Z</time>
      </trkpt>
      <trkpt lat="45.72838" lon="5.42613">
        <ele>233.709</ele>
        <time>2018-06-16T14:30:31Z</time>
      </trkpt>
      <trkpt lat="45.7287" lon="5.42623">
        <ele>233.58</ele>
        <time>2018-06-16T14:30:40Z</time>
      </trkpt>
      <trkpt lat="45.72898" lon="5.42629">
        <ele>233.748</ele>
        <time>2018-06-16T14:30:48Z</time>
      </trkpt>
      <trkpt lat="45.72917" lon="5.42632">
        <ele>233.473</ele>
        <time>2018-06-16T14:30:53Z</time>
      </trkpt>
      <trkpt lat="45.72949" lon="5.42635">
        <ele>233.43</ele>
        <time>2018-06-16T14:31:01Z</time>
      </trkpt>
      <trkpt lat="45.72975" lon="5.42634">
        <ele>233.491</ele>
        <time>2018-06-16T14:31:09Z</time>
      </trkpt>
      <trkpt lat="45.73003" lon="5.42629">
        <ele>233.023</ele>
        <time>2018-06-16T14:31:17Z</time>
      </trkpt>
      <trkpt lat="45.73021" lon="5.42624">
        <ele>233.228</ele>
        <time>2018-06-16T14:31:22Z</time>
      </trkpt>
      <trkpt lat="45.73024" lon="5.42623">
        <ele>233.225</ele>
        <time>2018-06-16T14:31:23Z</time>
      </trkpt>
      <trkpt lat="45.73065" lon="5.42612">
        <ele>233.076</ele>
        <time>2018-06-16T14:31:33Z</time>
      </trkpt>
      <trkpt lat="45.7308" lon="5.42604">
        <ele>232.963</ele>
        <time>2018-06-16T14:31:37Z</time>
      </trkpt>
      <trkpt lat="45.73122" lon="5.42583">
        <ele>232.442</ele>
        <time>2018-06-16T14:31:48Z</time>
      </trkpt>
      <trkpt lat="45.7315" lon="5.42564">
        <ele>232.899</ele>
        <time>2018-06-16T14:31:56Z</time>
      </trkpt>
      <trkpt lat="45.73176" lon="5.42545">
        <ele>233.255</ele>
        <time>2018-06-16T14:32:04Z</time>
      </trkpt>
      <trkpt lat="45.73206" lon="5.42518">
        <ele>232.998</ele>
        <time>2018-06-16T14:32:14Z</time>
      </trkpt>
      <trkpt lat="45.73226" lon="5.42495">
        <ele>233.278</ele>
        <time>2018-06-16T14:32:22Z</time>
      </trkpt>
      <trkpt lat="45.73255" lon="5.42461">
        <ele>232.971</ele>
        <time>2018-06-16T14:32:33Z</time>
      </trkpt>
      <trkpt lat="45.7328" lon="5.42428">
        <ele>233.059</ele>
        <time>2018-06-16T14:32:42Z</time>
      </trkpt>
      <trkpt lat="45.73312" lon="5.42389">
        <ele>232.251</ele>
        <time>2018-06-16T14:32:53Z</time>
      </trkpt>
      <trkpt lat="45.73347" lon="5.42343">
        <ele>233.043</ele>
        <time>2018-06-16T14:33:05Z</time>
      </trkpt>
      <trkpt lat="45.73374" lon="5.42312">
        <ele>232.441</ele>
        <time>2018-06-16T14:33:14Z</time>
      </trkpt>
      <trkpt lat="45.73394" lon="5.42294">
        <ele>232.844</ele>
        <time>2018-06-16T14:33:20Z</time>
      </trkpt>
      <trkpt lat="45.73431" lon="5.42264">
        <ele>232.984</ele>
        <time>2018-06-16T14:33:31Z</time>
      </trkpt>
      <trkpt lat="45.7346" lon="5.42245">
        <ele>232.929</ele>
        <time>2018-06-16T14:33:39Z</time>
      </trkpt>
      <trkpt lat="45.73493" lon="5.42227">
        <ele>233.027</ele>
        <time>2018-06-16T14:33:49Z</time>
      </trkpt>
      <trkpt lat="45.73535" lon="5.4221">
        <ele>233.852</ele>
        <time>2018-06-16T14:34:00Z</time>
      </trkpt>
      <trkpt lat="45.73565" lon="5.42201">
        <ele>233.479</ele>
        <time>2018-06-16T14:34:08Z</time>
      </trkpt>
      <trkpt lat="45.73598" lon="5.42195">
        <ele>233.373</ele>
        <time>2018-06-16T14:34:16Z</time>
      </trkpt>
      <trkpt lat="45.73634" lon="5.42193">
        <ele>233.036</ele>
        <time>2018-06-16T14:34:25Z</time>
      </trkpt>
      <trkpt lat="45.73661" lon="5.42194">
        <ele>233.682</ele>
        <time>2018-06-16T14:34:32Z</time>
      </trkpt>
      <trkpt lat="45.7369" lon="5.42199">
        <ele>233.378</ele>
        <time>2018-06-16T14:34:40Z</time>
      </trkpt>
      <trkpt lat="45.73698" lon="5.42201">
        <ele>233.757</ele>
        <time>2018-06-16T14:34:42Z</time>
      </trkpt>
      <trkpt lat="45.73733" lon="5.42208">
        <ele>233.734</ele>
        <time>2018-06-16T14:34:51Z</time>
      </trkpt>
      <trkpt lat="45.73749" lon="5.42211">
        <ele>233.851</ele>
        <time>2018-06-16T14:34:56Z</time>
      </trkpt>
      <trkpt lat="45.73784" lon="5.42219">
        <ele>233.567</ele>
        <time>2018-06-16T14:35:04Z</time>
      </trkpt>
      <trkpt lat="45.7384" lon="5.42231">
        <ele>233.674</ele>
        <time>2018-06-16T14:35:17Z</time>
      </trkpt>
      <trkpt lat="45.73891" lon="5.42242">
        <ele>233.445</ele>
        <time>2018-06-16T14:35:29Z</time>
      </trkpt>
      <trkpt lat="45.73945" lon="5.42253">
        <ele>234.015</ele>
        <time>2018-06-16T14:35:42Z</time>
      </trkpt>
      <trkpt lat="45.73998" lon="5.42265">
        <ele>233.716</ele>
        <time>2018-06-16T14:35:55Z</time>
      </trkpt>
      <trkpt lat="45.74044" lon="5.42275">
        <ele>233.699</ele>
        <time>2018-06-16T14:36:06Z</time>
      </trkpt>
      <trkpt lat="45.74099" lon="5.42287">
        <ele>233.336</ele>
        <time>2018-06-16T14:36:19Z</time>
      </trkpt>
      <trkpt lat="45.74142" lon="5.42295">
        <ele>233.666</ele>
        <time>2018-06-16T14:36:29Z</time>
      </trkpt>
      <trkpt lat="45.74199" lon="5.42311">
        <ele>234.029</ele>
        <time>2018-06-16T14:36:42Z</time>
      </trkpt>
      <trkpt lat="45.7424" lon="5.42318">
        <ele>234.212</ele>
        <time>2018-06-16T14:36:52Z</time>
      </trkpt>
      <trkpt lat="45.74244" lon="5.42319">
        <ele>234.395</ele>
        <time>2018-06-16T14:36:53Z</time>
      </trkpt>
      <trkpt lat="45.74271" lon="5.42325">
        <ele>234.284</ele>
        <time>2018-06-16T14:37:00Z</time>
      </trkpt>
      <trkpt lat="45.74296" lon="5.4233">
        <ele>233.789</ele>
        <time>2018-06-16T14:37:06Z</time>
      </trkpt>
      <trkpt lat="45.74329" lon="5.42337">
        <ele>234.23</ele>
        <time>2018-06-16T14:37:14Z</time>
      </trkpt>
      <trkpt lat="45.74357" lon="5.42344">
        <ele>233.494</ele>
        <time>2018-06-16T14:37:20Z</time>
      </trkpt>
      <trkpt lat="45.74402" lon="5.42353">
        <ele>233.796</ele>
        <time>2018-06-16T14:37:30Z</time>
      </trkpt>
      <trkpt lat="45.74434" lon="5.42361">
        <ele>233.583</ele>
        <time>2018-06-16T14:37:37Z</time>
      </trkpt>
      <trkpt lat="45.74449" lon="5.42364">
        <ele>233.586</ele>
        <time>2018-06-16T14:37:40Z</time>
      </trkpt>
      <trkpt lat="45.74466" lon="5.42368">
        <ele>233.314</ele>
        <time>2018-06-16T14:37:44Z</time>
      </trkpt>
      <trkpt lat="45.74509" lon="5.42378">
        <ele>233.391</ele>
        <time>2018-06-16T14:37:54Z</time>
      </trkpt>
      <trkpt lat="45.74554" lon="5.42388">
        <ele>233.643</ele>
        <time>2018-06-16T14:38:04Z</time>
      </trkpt>
      <trkpt lat="45.74606" lon="5.424">
        <ele>233.584</ele>
        <time>2018-06-16T14:38:16Z</time>
      </trkpt>
      <trkpt lat="45.74652" lon="5.42409">
        <ele>233.136</ele>
        <time>2018-06-16T14:38:26Z</time>
      </trkpt>
      <trkpt lat="45.74729" lon="5.42429">
        <ele>233.237</ele>
        <time>2018-06-16T14:38:43Z</time>
      </trkpt>
      <trkpt lat="45.74785" lon="5.42441">
        <ele>233.289</ele>
        <time>2018-06-16T14:38:56Z</time>
      </trkpt>
      <trkpt lat="45.74836" lon="5.42452">
        <ele>232.855</ele>
        <time>2018-06-16T14:39:07Z</time>
      </trkpt>
      <trkpt lat="45.7488" lon="5.42462">
        <ele>232.741</ele>
        <time>2018-06-16T14:39:17Z</time>
      </trkpt>
      <trkpt lat="45.74936" lon="5.42473">
        <ele>232.902</ele>
        <time>2018-06-16T14:39:30Z</time>
      </trkpt>
      <trkpt lat="45.74958" lon="5.42478">
        <ele>232.922</ele>
        <time>2018-06-16T14:39:35Z</time>
      </trkpt>
      <trkpt lat="45.74977" lon="5.42482">
        <ele>233.484</ele>
        <time>2018-06-16T14:39:41Z</time>
      </trkpt>
      <trkpt lat="45.74977" lon="5.42487">
        <ele>233.837</ele>
        <time>2018-06-16T14:39:44Z</time>
      </trkpt>
      <trkpt lat="45.74984" lon="5.42508">
        <ele>233.85</ele>
        <time>2018-06-16T14:39:49Z</time>
      </trkpt>
      <trkpt lat="45.74992" lon="5.42512">
        <ele>234.37</ele>
        <time>2018-06-16T14:39:55Z</time>
      </trkpt>
      <trkpt lat="45.74999" lon="5.42511">
        <ele>234.459</ele>
        <time>2018-06-16T14:41:36Z</time>
      </trkpt>
      <trkpt lat="45.75016" lon="5.42511">
        <ele>234.762</ele>
        <time>2018-06-16T14:41:43Z</time>
      </trkpt>
      <trkpt lat="45.75045" lon="5.42509">
        <ele>235.66</ele>
        <time>2018-06-16T14:41:54Z</time>
      </trkpt>
      <trkpt lat="45.75079" lon="5.42517">
        <ele>235.484</ele>
        <time>2018-06-16T14:42:06Z</time>
      </trkpt>
      <trkpt lat="45.75102" lon="5.42521">
        <ele>235.278</ele>
        <time>2018-06-16T14:42:14Z</time>
      </trkpt>
      <trkpt lat="45.75139" lon="5.42527">
        <ele>234.611</ele>
        <time>2018-06-16T14:42:25Z</time>
      </trkpt>
      <trkpt lat="45.75169" lon="5.42532">
        <ele>234.398</ele>
        <time>2018-06-16T14:42:33Z</time>
      </trkpt>
      <trkpt lat="45.75199" lon="5.42535">
        <ele>234.496</ele>
        <time>2018-06-16T14:42:41Z</time>
      </trkpt>
      <trkpt lat="45.75236" lon="5.42538">
        <ele>233.761</ele>
        <time>2018-06-16T14:42:49Z</time>
      </trkpt>
      <trkpt lat="45.75277" lon="5.42542">
        <ele>234.663</ele>
        <time>2018-06-16T14:42:59Z</time>
      </trkpt>
      <trkpt lat="45.75297" lon="5.42545">
        <ele>235.023</ele>
        <time>2018-06-16T14:43:05Z</time>
      </trkpt>
      <trkpt lat="45.75328" lon="5.42548">
        <ele>236.39</ele>
        <time>2018-06-16T14:43:15Z</time>
      </trkpt>
      <trkpt lat="45.7535" lon="5.42551">
        <ele>236.611</ele>
        <time>2018-06-16T14:43:22Z</time>
      </trkpt>
      <trkpt lat="45.75359" lon="5.42551">
        <ele>236.016</ele>
        <time>2018-06-16T14:43:24Z</time>
      </trkpt>
      <trkpt lat="45.75374" lon="5.42551">
        <ele>234.974</ele>
        <time>2018-06-16T14:43:27Z</time>
      </trkpt>
      <trkpt lat="45.75436" lon="5.42555">
        <ele>233.669</ele>
        <time>2018-06-16T14:43:38Z</time>
      </trkpt>
      <trkpt lat="45.75468" lon="5.42562">
        <ele>234.047</ele>
        <time>2018-06-16T14:43:45Z</time>
      </trkpt>
      <trkpt lat="45.75507" lon="5.42572">
        <ele>235.062</ele>
        <time>2018-06-16T14:43:56Z</time>
      </trkpt>
      <trkpt lat="45.75541" lon="5.42588">
        <ele>236.847</ele>
        <time>2018-06-16T14:44:08Z</time>
      </trkpt>
      <trkpt lat="45.75557" lon="5.42605">
        <ele>237.567</ele>
        <time>2018-06-16T14:44:16Z</time>
      </trkpt>
      <trkpt lat="45.75576" lon="5.42631">
        <ele>237.306</ele>
        <time>2018-06-16T14:44:25Z</time>
      </trkpt>
      <trkpt lat="45.75596" lon="5.4267">
        <ele>236.919</ele>
        <time>2018-06-16T14:44:34Z</time>
      </trkpt>
      <trkpt lat="45.75599" lon="5.4268">
        <ele>236.607</ele>
        <time>2018-06-16T14:44:36Z</time>
      </trkpt>
      <trkpt lat="45.75607" lon="5.427">
        <ele>235.864</ele>
        <time>2018-06-16T14:44:40Z</time>
      </trkpt>
      <trkpt lat="45.75616" lon="5.42719">
        <ele>235.638</ele>
        <time>2018-06-16T14:44:44Z</time>
      </trkpt>
      <trkpt lat="45.75625" lon="5.42699">
        <ele>234.696</ele>
        <time>2018-06-16T14:44:46Z</time>
      </trkpt>
      <trkpt lat="45.75632" lon="5.42688">
        <ele>233.389</ele>
        <time>2018-06-16T14:44:48Z</time>
      </trkpt>
      <trkpt lat="45.75662" lon="5.42669">
        <ele>232.469</ele>
        <time>2018-06-16T14:44:54Z</time>
      </trkpt>
      <trkpt lat="45.75705" lon="5.42659">
        <ele>231.971</ele>
        <time>2018-06-16T14:45:02Z</time>
      </trkpt>
      <trkpt lat="45.75749" lon="5.4265">
        <ele>232.276</ele>
        <time>2018-06-16T14:45:12Z</time>
      </trkpt>
      <trkpt lat="45.75791" lon="5.4265">
        <ele>232.189</ele>
        <time>2018-06-16T14:45:21Z</time>
      </trkpt>
      <trkpt lat="45.75833" lon="5.42645">
        <ele>232.05</ele>
        <time>2018-06-16T14:45:30Z</time>
      </trkpt>
      <trkpt lat="45.75855" lon="5.42642">
        <ele>232.178</ele>
        <time>2018-06-16T14:45:35Z</time>
      </trkpt>
      <trkpt lat="45.75864" lon="5.42641">
        <ele>232.3</ele>
        <time>2018-06-16T14:45:37Z</time>
      </trkpt>
      <trkpt lat="45.75877" lon="5.42639">
        <ele>232.459</ele>
        <time>2018-06-16T14:45:40Z</time>
      </trkpt>
      <trkpt lat="45.7589" lon="5.42637">
        <ele>232.647</ele>
        <time>2018-06-16T14:45:43Z</time>
      </trkpt>
      <trkpt lat="45.75944" lon="5.42629">
        <ele>232.383</ele>
        <time>2018-06-16T14:45:56Z</time>
      </trkpt>
      <trkpt lat="45.7599" lon="5.42621">
        <ele>231.927</ele>
        <time>2018-06-16T14:46:06Z</time>
      </trkpt>
      <trkpt lat="45.76011" lon="5.42616">
        <ele>232.294</ele>
        <time>2018-06-16T14:46:12Z</time>
      </trkpt>
      <trkpt lat="45.76022" lon="5.4261">
        <ele>232.307</ele>
        <time>2018-06-16T14:46:15Z</time>
      </trkpt>
      <trkpt lat="45.76039" lon="5.42586">
        <ele>231.186</ele>
        <time>2018-06-16T14:46:21Z</time>
      </trkpt>
      <trkpt lat="45.76059" lon="5.4255">
        <ele>232.474</ele>
        <time>2018-06-16T14:46:30Z</time>
      </trkpt>
      <trkpt lat="45.76071" lon="5.42529">
        <ele>231.93</ele>
        <time>2018-06-16T14:46:35Z</time>
      </trkpt>
      <trkpt lat="45.76078" lon="5.42515">
        <ele>230.187</ele>
        <time>2018-06-16T14:46:38Z</time>
      </trkpt>
      <trkpt lat="45.76093" lon="5.42493">
        <ele>230.212</ele>
        <time>2018-06-16T14:46:43Z</time>
      </trkpt>
      <trkpt lat="45.76106" lon="5.42481">
        <ele>230.262</ele>
        <time>2018-06-16T14:46:47Z</time>
      </trkpt>
      <trkpt lat="45.76119" lon="5.4247">
        <ele>229.098</ele>
        <time>2018-06-16T14:46:50Z</time>
      </trkpt>
      <trkpt lat="45.76134" lon="5.42457">
        <ele>228.863</ele>
        <time>2018-06-16T14:46:54Z</time>
      </trkpt>
      <trkpt lat="45.76165" lon="5.42465">
        <ele>228.189</ele>
        <time>2018-06-16T14:47:00Z</time>
      </trkpt>
      <trkpt lat="45.76185" lon="5.42464">
        <ele>227.81</ele>
        <time>2018-06-16T14:47:08Z</time>
      </trkpt>
      <trkpt lat="45.76206" lon="5.42463">
        <ele>227.96</ele>
        <time>2018-06-16T14:47:18Z</time>
      </trkpt>
      <trkpt lat="45.76234" lon="5.42463">
        <ele>227.806</ele>
        <time>2018-06-16T14:47:29Z</time>
      </trkpt>
      <trkpt lat="45.76263" lon="5.42465">
        <ele>228.258</ele>
        <time>2018-06-16T14:47:39Z</time>
      </trkpt>
      <trkpt lat="45.76289" lon="5.42466">
        <ele>227.999</ele>
        <time>2018-06-16T14:47:47Z</time>
      </trkpt>
      <trkpt lat="45.76313" lon="5.42452">
        <ele>228.008</ele>
        <time>2018-06-16T14:47:54Z</time>
      </trkpt>
      <trkpt lat="45.7634" lon="5.42459">
        <ele>227.941</ele>
        <time>2018-06-16T14:48:01Z</time>
      </trkpt>
      <trkpt lat="45.7636" lon="5.42475">
        <ele>228.047</ele>
        <time>2018-06-16T14:48:09Z</time>
      </trkpt>
      <trkpt lat="45.76376" lon="5.42482">
        <ele>227.842</ele>
        <time>2018-06-16T14:48:15Z</time>
      </trkpt>
      <trkpt lat="45.76395" lon="5.42476">
        <ele>228.02</ele>
        <time>2018-06-16T14:48:22Z</time>
      </trkpt>
      <trkpt lat="45.76434" lon="5.42462">
        <ele>228.339</ele>
        <time>2018-06-16T14:48:35Z</time>
      </trkpt>
      <trkpt lat="45.76468" lon="5.42458">
        <ele>228.466</ele>
        <time>2018-06-16T14:48:44Z</time>
      </trkpt>
      <trkpt lat="45.76497" lon="5.42465">
        <ele>228.072</ele>
        <time>2018-06-16T14:48:52Z</time>
      </trkpt>
      <trkpt lat="45.76541" lon="5.4249">
        <ele>228.579</ele>
        <time>2018-06-16T14:49:04Z</time>
      </trkpt>
      <trkpt lat="45.76589" lon="5.42517">
        <ele>228.556</ele>
        <time>2018-06-16T14:49:17Z</time>
      </trkpt>
      <trkpt lat="45.76614" lon="5.42534">
        <ele>228.364</ele>
        <time>2018-06-16T14:49:24Z</time>
      </trkpt>
      <trkpt lat="45.76653" lon="5.42564">
        <ele>228.361</ele>
        <time>2018-06-16T14:49:34Z</time>
      </trkpt>
      <trkpt lat="45.76684" lon="5.42584">
        <ele>228.204</ele>
        <time>2018-06-16T14:49:42Z</time>
      </trkpt>
      <trkpt lat="45.76693" lon="5.4259">
        <ele>228.395</ele>
        <time>2018-06-16T14:49:44Z</time>
      </trkpt>
      <trkpt lat="45.76717" lon="5.42606">
        <ele>227.846</ele>
        <time>2018-06-16T14:49:50Z</time>
      </trkpt>
      <trkpt lat="45.76738" lon="5.42639">
        <ele>226.762</ele>
        <time>2018-06-16T14:49:57Z</time>
      </trkpt>
      <trkpt lat="45.76757" lon="5.42686">
        <ele>226.165</ele>
        <time>2018-06-16T14:50:05Z</time>
      </trkpt>
      <trkpt lat="45.76778" lon="5.42734">
        <ele>226.347</ele>
        <time>2018-06-16T14:50:13Z</time>
      </trkpt>
      <trkpt lat="45.76813" lon="5.42787">
        <ele>226.219</ele>
        <time>2018-06-16T14:50:24Z</time>
      </trkpt>
      <trkpt lat="45.76854" lon="5.42831">
        <ele>226.416</ele>
        <time>2018-06-16T14:50:36Z</time>
      </trkpt>
      <trkpt lat="45.76887" lon="5.42881">
        <ele>226.377</ele>
        <time>2018-06-16T14:50:47Z</time>
      </trkpt>
      <trkpt lat="45.76907" lon="5.42928">
        <ele>226.591</ele>
        <time>2018-06-16T14:50:56Z</time>
      </trkpt>
      <trkpt lat="45.76916" lon="5.4297">
        <ele>227.217</ele>
        <time>2018-06-16T14:51:04Z</time>
      </trkpt>
      <trkpt lat="45.76921" lon="5.42996">
        <ele>228.522</ele>
        <time>2018-06-16T14:51:11Z</time>
      </trkpt>
      <trkpt lat="45.76933" lon="5.43033">
        <ele>228.765</ele>
        <time>2018-06-16T14:51:21Z</time>
      </trkpt>
      <trkpt lat="45.76955" lon="5.43096">
        <ele>228.437</ele>
        <time>2018-06-16T14:51:35Z</time>
      </trkpt>
      <trkpt lat="45.76971" lon="5.43145">
        <ele>228.931</ele>
        <time>2018-06-16T14:51:45Z</time>
      </trkpt>
      <trkpt lat="45.76991" lon="5.43187">
        <ele>229.217</ele>
        <time>2018-06-16T14:51:55Z</time>
      </trkpt>
      <trkpt lat="45.77008" lon="5.43241">
        <ele>229.9</ele>
        <time>2018-06-16T14:52:06Z</time>
      </trkpt>
      <trkpt lat="45.7702" lon="5.433">
        <ele>229.302</ele>
        <time>2018-06-16T14:52:17Z</time>
      </trkpt>
      <trkpt lat="45.7704" lon="5.43366">
        <ele>228.166</ele>
        <time>2018-06-16T14:52:31Z</time>
      </trkpt>
      <trkpt lat="45.77049" lon="5.43404">
        <ele>228.375</ele>
        <time>2018-06-16T14:52:39Z</time>
      </trkpt>
      <trkpt lat="45.77052" lon="5.43418">
        <ele>227.944</ele>
        <time>2018-06-16T14:52:42Z</time>
      </trkpt>
      <trkpt lat="45.77064" lon="5.43423">
        <ele>228.05</ele>
        <time>2018-06-16T14:52:46Z</time>
      </trkpt>
      <trkpt lat="45.77095" lon="5.43406">
        <ele>228.644</ele>
        <time>2018-06-16T14:52:56Z</time>
      </trkpt>
      <trkpt lat="45.77097" lon="5.43389">
        <ele>229.501</ele>
        <time>2018-06-16T14:53:00Z</time>
      </trkpt>
      <trkpt lat="45.77092" lon="5.43351">
        <ele>231.09</ele>
        <time>2018-06-16T14:53:10Z</time>
      </trkpt>
      <trkpt lat="45.7709" lon="5.43314">
        <ele>231.411</ele>
        <time>2018-06-16T14:53:19Z</time>
      </trkpt>
      <trkpt lat="45.77086" lon="5.43245">
        <ele>229.813</ele>
        <time>2018-06-16T14:53:28Z</time>
      </trkpt>
      <trkpt lat="45.77107" lon="5.43226">
        <ele>228.998</ele>
        <time>2018-06-16T14:53:34Z</time>
      </trkpt>
      <trkpt lat="45.77144" lon="5.43187">
        <ele>226.861</ele>
        <time>2018-06-16T14:53:43Z</time>
      </trkpt>
      <trkpt lat="45.77182" lon="5.43146">
        <ele>225.307</ele>
        <time>2018-06-16T14:53:52Z</time>
      </trkpt>
      <trkpt lat="45.77186" lon="5.43134">
        <ele>224.975</ele>
        <time>2018-06-16T14:53:56Z</time>
      </trkpt>
      <trkpt lat="45.77173" lon="5.43104">
        <ele>225.276</ele>
        <time>2018-06-16T14:54:03Z</time>
      </trkpt>
      <trkpt lat="45.77178" lon="5.43088">
        <ele>224.928</ele>
        <time>2018-06-16T14:54:07Z</time>
      </trkpt>
      <trkpt lat="45.77207" lon="5.43057">
        <ele>225.154</ele>
        <time>2018-06-16T14:54:17Z</time>
      </trkpt>
      <trkpt lat="45.77215" lon="5.43049">
        <ele>225.03</ele>
        <time>2018-06-16T14:54:21Z</time>
      </trkpt>
      <trkpt lat="45.77223" lon="5.43065">
        <ele>225.034</ele>
        <time>2018-06-16T14:54:26Z</time>
      </trkpt>
      <trkpt lat="45.77254" lon="5.43115">
        <ele>224.6</ele>
        <time>2018-06-16T14:54:37Z</time>
      </trkpt>
      <trkpt lat="45.7728" lon="5.43156">
        <ele>224.312</ele>
        <time>2018-06-16T14:54:46Z</time>
      </trkpt>
      <trkpt lat="45.77289" lon="5.4317">
        <ele>224.751</ele>
        <time>2018-06-16T14:54:49Z</time>
      </trkpt>
      <trkpt lat="45.7731" lon="5.432">
        <ele>224.578</ele>
        <time>2018-06-16T14:54:55Z</time>
      </trkpt>
      <trkpt lat="45.77354" lon="5.43242">
        <ele>224.424</ele>
        <time>2018-06-16T14:55:07Z</time>
      </trkpt>
      <trkpt lat="45.77379" lon="5.43263">
        <ele>225.422</ele>
        <time>2018-06-16T14:55:16Z</time>
      </trkpt>
      <trkpt lat="45.77388" lon="5.4327">
        <ele>226.296</ele>
        <time>2018-06-16T14:55:25Z</time>
      </trkpt>
      <trkpt lat="45.77395" lon="5.43276">
        <ele>226.135</ele>
        <time>2018-06-16T14:55:35Z</time>
      </trkpt>
      <trkpt lat="45.77406" lon="5.43282">
        <ele>225.994</ele>
        <time>2018-06-16T14:57:07Z</time>
      </trkpt>
      <trkpt lat="45.77419" lon="5.43291">
        <ele>225.576</ele>
        <time>2018-06-16T14:57:13Z</time>
      </trkpt>
      <trkpt lat="45.77432" lon="5.43299">
        <ele>224.657</ele>
        <time>2018-06-16T14:57:16Z</time>
      </trkpt>
      <trkpt lat="45.77459" lon="5.43311">
        <ele>224.581</ele>
        <time>2018-06-16T14:57:22Z</time>
      </trkpt>
      <trkpt lat="45.77501" lon="5.43327">
        <ele>225.278</ele>
        <time>2018-06-16T14:57:32Z</time>
      </trkpt>
      <trkpt lat="45.77535" lon="5.43336">
        <ele>225.784</ele>
        <time>2018-06-16T14:57:41Z</time>
      </trkpt>
      <trkpt lat="45.77554" lon="5.43339">
        <ele>226.649</ele>
        <time>2018-06-16T14:57:48Z</time>
      </trkpt>
      <trkpt lat="45.77561" lon="5.4334">
        <ele>227.117</ele>
        <time>2018-06-16T14:58:00Z</time>
      </trkpt>
      <trkpt lat="45.77585" lon="5.43342">
        <ele>226.205</ele>
        <time>2018-06-16T14:58:08Z</time>
      </trkpt>
      <trkpt lat="45.77614" lon="5.43341">
        <ele>225.548</ele>
        <time>2018-06-16T14:58:18Z</time>
      </trkpt>
      <trkpt lat="45.77676" lon="5.43334">
        <ele>226.001</ele>
        <time>2018-06-16T14:58:34Z</time>
      </trkpt>
      <trkpt lat="45.77733" lon="5.43326">
        <ele>226.742</ele>
        <time>2018-06-16T14:58:48Z</time>
      </trkpt>
      <trkpt lat="45.77771" lon="5.43322">
        <ele>227.726</ele>
        <time>2018-06-16T14:58:59Z</time>
      </trkpt>
      <trkpt lat="45.77775" lon="5.43321">
        <ele>227.76</ele>
        <time>2018-06-16T14:59:01Z</time>
      </trkpt>
      <trkpt lat="45.77783" lon="5.43344">
        <ele>227.496</ele>
        <time>2018-06-16T14:59:08Z</time>
      </trkpt>
      <trkpt lat="45.77796" lon="5.43381">
        <ele>227.392</ele>
        <time>2018-06-16T14:59:16Z</time>
      </trkpt>
      <trkpt lat="45.77814" lon="5.4344">
        <ele>227.389</ele>
        <time>2018-06-16T14:59:26Z</time>
      </trkpt>
      <trkpt lat="45.77831" lon="5.43492">
        <ele>226.817</ele>
        <time>2018-06-16T14:59:36Z</time>
      </trkpt>
      <trkpt lat="45.77855" lon="5.4356">
        <ele>226.881</ele>
        <time>2018-06-16T14:59:49Z</time>
      </trkpt>
      <trkpt lat="45.77857" lon="5.43566">
        <ele>226.626</ele>
        <time>2018-06-16T14:59:50Z</time>
      </trkpt>
      <trkpt lat="45.77876" lon="5.43621">
        <ele>226.456</ele>
        <time>2018-06-16T15:00:01Z</time>
      </trkpt>
      <trkpt lat="45.77888" lon="5.43651">
        <ele>226.284</ele>
        <time>2018-06-16T15:00:09Z</time>
      </trkpt>
      <trkpt lat="45.77903" lon="5.4369">
        <ele>226.423</ele>
        <time>2018-06-16T15:00:17Z</time>
      </trkpt>
      <trkpt lat="45.77923" lon="5.43741">
        <ele>226.507</ele>
        <time>2018-06-16T15:00:27Z</time>
      </trkpt>
      <trkpt lat="45.77939" lon="5.43787">
        <ele>225.801</ele>
        <time>2018-06-16T15:00:36Z</time>
      </trkpt>
      <trkpt lat="45.77957" lon="5.43829">
        <ele>226.243</ele>
        <time>2018-06-16T15:00:45Z</time>
      </trkpt>
      <trkpt lat="45.7797" lon="5.43862">
        <ele>226.202</ele>
        <time>2018-06-16T15:00:52Z</time>
      </trkpt>
      <trkpt lat="45.77982" lon="5.43893">
        <ele>225.915</ele>
        <time>2018-06-16T15:00:58Z</time>
      </trkpt>
      <trkpt lat="45.77997" lon="5.43939">
        <ele>225.747</ele>
        <time>2018-06-16T15:01:07Z</time>
      </trkpt>
      <trkpt lat="45.7801" lon="5.43976">
        <ele>225.667</ele>
        <time>2018-06-16T15:01:15Z</time>
      </trkpt>
      <trkpt lat="45.78018" lon="5.44007">
        <ele>225.488</ele>
        <time>2018-06-16T15:01:22Z</time>
      </trkpt>
      <trkpt lat="45.78001" lon="5.44029">
        <ele>224.711</ele>
        <time>2018-06-16T15:01:29Z</time>
      </trkpt>
      <trkpt lat="45.77972" lon="5.4405">
        <ele>225.05</ele>
        <time>2018-06-16T15:01:38Z</time>
      </trkpt>
      <trkpt lat="45.77965" lon="5.44057">
        <ele>224.75</ele>
        <time>2018-06-16T15:01:40Z</time>
      </trkpt>
      <trkpt lat="45.77958" lon="5.44066">
        <ele>224.647</ele>
        <time>2018-06-16T15:01:42Z</time>
      </trkpt>
      <trkpt lat="45.77951" lon="5.4408">
        <ele>224.399</ele>
        <time>2018-06-16T15:01:45Z</time>
      </trkpt>
      <trkpt lat="45.77939" lon="5.44109">
        <ele>224.395</ele>
        <time>2018-06-16T15:01:52Z</time>
      </trkpt>
      <trkpt lat="45.77938" lon="5.44111">
        <ele>224.792</ele>
        <time>2018-06-16T15:01:57Z</time>
      </trkpt>
      <trkpt lat="45.77935" lon="5.44115">
        <ele>224.897</ele>
        <time>2018-06-16T15:02:52Z</time>
      </trkpt>
      <trkpt lat="45.7794" lon="5.44121">
        <ele>224.875</ele>
        <time>2018-06-16T15:02:58Z</time>
      </trkpt>
      <trkpt lat="45.77953" lon="5.4413">
        <ele>224.458</ele>
        <time>2018-06-16T15:03:05Z</time>
      </trkpt>
      <trkpt lat="45.77975" lon="5.44145">
        <ele>224.651</ele>
        <time>2018-06-16T15:03:15Z</time>
      </trkpt>
      <trkpt lat="45.77996" lon="5.44157">
        <ele>224.659</ele>
        <time>2018-06-16T15:03:22Z</time>
      </trkpt>
      <trkpt lat="45.78014" lon="5.44168">
        <ele>224.881</ele>
        <time>2018-06-16T15:03:29Z</time>
      </trkpt>
      <trkpt lat="45.78035" lon="5.44181">
        <ele>224.268</ele>
        <time>2018-06-16T15:03:37Z</time>
      </trkpt>
      <trkpt lat="45.78051" lon="5.44192">
        <ele>224.717</ele>
        <time>2018-06-16T15:03:47Z</time>
      </trkpt>
      <trkpt lat="45.78057" lon="5.44197">
        <ele>225.387</ele>
        <time>2018-06-16T15:03:54Z</time>
      </trkpt>
      <trkpt lat="45.78076" lon="5.44221">
        <ele>225.521</ele>
        <time>2018-06-16T15:04:01Z</time>
      </trkpt>
      <trkpt lat="45.78094" lon="5.44242">
        <ele>225.507</ele>
        <time>2018-06-16T15:04:08Z</time>
      </trkpt>
      <trkpt lat="45.7812" lon="5.44273">
        <ele>226.42</ele>
        <time>2018-06-16T15:04:18Z</time>
      </trkpt>
      <trkpt lat="45.7814" lon="5.44305">
        <ele>226.55</ele>
        <time>2018-06-16T15:04:26Z</time>
      </trkpt>
      <trkpt lat="45.78163" lon="5.44341">
        <ele>227.016</ele>
        <time>2018-06-16T15:04:35Z</time>
      </trkpt>
      <trkpt lat="45.78187" lon="5.44378">
        <ele>227.581</ele>
        <time>2018-06-16T15:04:44Z</time>
      </trkpt>
      <trkpt lat="45.78208" lon="5.44407">
        <ele>228.018</ele>
        <time>2018-06-16T15:04:53Z</time>
      </trkpt>
      <trkpt lat="45.78236" lon="5.4444">
        <ele>228.724</ele>
        <time>2018-06-16T15:05:05Z</time>
      </trkpt>
      <trkpt lat="45.78255" lon="5.44459">
        <ele>228.743</ele>
        <time>2018-06-16T15:05:14Z</time>
      </trkpt>
      <trkpt lat="45.78281" lon="5.44473">
        <ele>228.99</ele>
        <time>2018-06-16T15:05:23Z</time>
      </trkpt>
      <trkpt lat="45.78314" lon="5.44482">
        <ele>229.464</ele>
        <time>2018-06-16T15:05:33Z</time>
      </trkpt>
      <trkpt lat="45.78349" lon="5.4448">
        <ele>229.468</ele>
        <time>2018-06-16T15:05:42Z</time>
      </trkpt>
      <trkpt lat="45.78388" lon="5.44473">
        <ele>229.65</ele>
        <time>2018-06-16T15:05:52Z</time>
      </trkpt>
      <trkpt lat="45.78433" lon="5.44459">
        <ele>228.702</ele>
        <time>2018-06-16T15:06:02Z</time>
      </trkpt>
      <trkpt lat="45.78486" lon="5.44439">
        <ele>226.055</ele>
        <time>2018-06-16T15:06:12Z</time>
      </trkpt>
      <trkpt lat="45.7852" lon="5.44421">
        <ele>224.599</ele>
        <time>2018-06-16T15:06:18Z</time>
      </trkpt>
      <trkpt lat="45.78581" lon="5.44382">
        <ele>222.174</ele>
        <time>2018-06-16T15:06:29Z</time>
      </trkpt>
      <trkpt lat="45.78602" lon="5.44366">
        <ele>221.62</ele>
        <time>2018-06-16T15:06:33Z</time>
      </trkpt>
      <trkpt lat="45.7862" lon="5.44363">
        <ele>220.897</ele>
        <time>2018-06-16T15:06:36Z</time>
      </trkpt>
      <trkpt lat="45.78649" lon="5.44362">
        <ele>220.444</ele>
        <time>2018-06-16T15:06:41Z</time>
      </trkpt>
      <trkpt lat="45.78681" lon="5.44365">
        <ele>219.702</ele>
        <time>2018-06-16T15:06:47Z</time>
      </trkpt>
      <trkpt lat="45.78703" lon="5.4436">
        <ele>219.411</ele>
        <time>2018-06-16T15:06:52Z</time>
      </trkpt>
      <trkpt lat="45.7872" lon="5.44349">
        <ele>220.386</ele>
        <time>2018-06-16T15:07:00Z</time>
      </trkpt>
      <trkpt lat="45.78727" lon="5.44344">
        <ele>220.634</ele>
        <time>2018-06-16T15:07:05Z</time>
      </trkpt>
    </trkseg>
  </trk>
</gpx>